<?xml version="1.0" encoding="UTF-8" standalone="no" ?>
<gpx xmlns="http://www.topografix.com/GPX/1/1" xmlns:xsi="http://www.w3.org/2001/XMLSchema-instance" xsi:schemaLocation="http://www.topografix.com/GPX/1/1 http://www.topografix.com/GPX/1/1/gpx.xsd" version="1.1" creator="VisuGPX - https://www.visugpx.com">
  <metadata>
    <name>77-sentier D 16 </name>
    <desc><![CDATA[Près d'Arbonne la Forêt,le parking est celui de la Canche aux Merciers.

Le beau temps nous accompagne,on commence le sentier vers le Nord.On remarque les ruines du socle du télégraphe,le Dolmen,K1le Canon,K3 le Millefeuilles,L le Menhir,les restes du Funiculaire avec sa carrière,la maison du père Poteau et arrivée au parking.Il y a neuf points de vue. ]]></desc>
  </metadata>
  <trk>
    <name><![CDATA[2018-09-28 12:46:23]]></name>
    <trkseg>
      <trkpt lat="48.39053" lon="2.55259">
        <ele>106.94</ele>
        <time>2018-09-28T07:31:02Z</time>
      </trkpt>
      <trkpt lat="48.39053" lon="2.55259">
        <ele>106.92</ele>
        <time>2018-09-28T07:31:03Z</time>
      </trkpt>
      <trkpt lat="48.39052" lon="2.55258">
        <ele>82.77</ele>
        <time>2018-09-28T07:31:06Z</time>
      </trkpt>
      <trkpt lat="48.39052" lon="2.55258">
        <ele>82.78</ele>
        <time>2018-09-28T07:31:07Z</time>
      </trkpt>
      <trkpt lat="48.39048" lon="2.55249">
        <ele>82.69</ele>
        <time>2018-09-28T07:31:44Z</time>
      </trkpt>
      <trkpt lat="48.39059" lon="2.55247">
        <ele>82.66</ele>
        <time>2018-09-28T07:31:57Z</time>
      </trkpt>
      <trkpt lat="48.39061" lon="2.55246">
        <ele>82.66</ele>
        <time>2018-09-28T07:31:58Z</time>
      </trkpt>
      <trkpt lat="48.39064" lon="2.55245">
        <ele>82.66</ele>
        <time>2018-09-28T07:32:01Z</time>
      </trkpt>
      <trkpt lat="48.39067" lon="2.55244">
        <ele>82.65</ele>
        <time>2018-09-28T07:32:04Z</time>
      </trkpt>
      <trkpt lat="48.39068" lon="2.55243">
        <ele>82.66</ele>
        <time>2018-09-28T07:32:05Z</time>
      </trkpt>
      <trkpt lat="48.3907" lon="2.55242">
        <ele>82.65</ele>
        <time>2018-09-28T07:32:06Z</time>
      </trkpt>
      <trkpt lat="48.39085" lon="2.55231">
        <ele>82.65</ele>
        <time>2018-09-28T07:32:20Z</time>
      </trkpt>
      <trkpt lat="48.39097" lon="2.55237">
        <ele>82.6</ele>
        <time>2018-09-28T07:32:34Z</time>
      </trkpt>
      <trkpt lat="48.39114" lon="2.55244">
        <ele>82.57</ele>
        <time>2018-09-28T07:32:48Z</time>
      </trkpt>
      <trkpt lat="48.39127" lon="2.55249">
        <ele>84.3</ele>
        <time>2018-09-28T07:33:01Z</time>
      </trkpt>
      <trkpt lat="48.39143" lon="2.55256">
        <ele>87.38</ele>
        <time>2018-09-28T07:33:19Z</time>
      </trkpt>
      <trkpt lat="48.39149" lon="2.55252">
        <ele>88.24</ele>
        <time>2018-09-28T07:33:25Z</time>
      </trkpt>
      <trkpt lat="48.3915" lon="2.55251">
        <ele>88.22</ele>
        <time>2018-09-28T07:33:26Z</time>
      </trkpt>
      <trkpt lat="48.39154" lon="2.55245">
        <ele>89.09</ele>
        <time>2018-09-28T07:33:31Z</time>
      </trkpt>
      <trkpt lat="48.39156" lon="2.55244">
        <ele>89.07</ele>
        <time>2018-09-28T07:33:32Z</time>
      </trkpt>
      <trkpt lat="48.39163" lon="2.55231">
        <ele>90.78</ele>
        <time>2018-09-28T07:33:46Z</time>
      </trkpt>
      <trkpt lat="48.39164" lon="2.55227">
        <ele>92.01</ele>
        <time>2018-09-28T07:33:49Z</time>
      </trkpt>
      <trkpt lat="48.3917" lon="2.55215">
        <ele>91.76</ele>
        <time>2018-09-28T07:34:06Z</time>
      </trkpt>
      <trkpt lat="48.39173" lon="2.55203">
        <ele>91.67</ele>
        <time>2018-09-28T07:34:22Z</time>
      </trkpt>
      <trkpt lat="48.39179" lon="2.552">
        <ele>91.61</ele>
        <time>2018-09-28T07:34:37Z</time>
      </trkpt>
      <trkpt lat="48.39191" lon="2.55206">
        <ele>93.98</ele>
        <time>2018-09-28T07:34:55Z</time>
      </trkpt>
      <trkpt lat="48.392" lon="2.55203">
        <ele>93.87</ele>
        <time>2018-09-28T07:35:03Z</time>
      </trkpt>
      <trkpt lat="48.39201" lon="2.55204">
        <ele>93.87</ele>
        <time>2018-09-28T07:35:04Z</time>
      </trkpt>
      <trkpt lat="48.39202" lon="2.55204">
        <ele>93.85</ele>
        <time>2018-09-28T07:35:05Z</time>
      </trkpt>
      <trkpt lat="48.39208" lon="2.55202">
        <ele>93.83</ele>
        <time>2018-09-28T07:35:11Z</time>
      </trkpt>
      <trkpt lat="48.39209" lon="2.552">
        <ele>93.87</ele>
        <time>2018-09-28T07:35:13Z</time>
      </trkpt>
      <trkpt lat="48.3921" lon="2.55197">
        <ele>93.86</ele>
        <time>2018-09-28T07:35:15Z</time>
      </trkpt>
      <trkpt lat="48.39211" lon="2.55195">
        <ele>93.86</ele>
        <time>2018-09-28T07:35:16Z</time>
      </trkpt>
      <trkpt lat="48.39214" lon="2.55177">
        <ele>93.85</ele>
        <time>2018-09-28T07:35:28Z</time>
      </trkpt>
      <trkpt lat="48.39211" lon="2.55156">
        <ele>95.59</ele>
        <time>2018-09-28T07:35:44Z</time>
      </trkpt>
      <trkpt lat="48.39213" lon="2.55146">
        <ele>95.45</ele>
        <time>2018-09-28T07:36:00Z</time>
      </trkpt>
      <trkpt lat="48.39213" lon="2.55134">
        <ele>95.4</ele>
        <time>2018-09-28T07:36:18Z</time>
      </trkpt>
      <trkpt lat="48.39213" lon="2.55133">
        <ele>93.03</ele>
        <time>2018-09-28T07:36:20Z</time>
      </trkpt>
      <trkpt lat="48.39213" lon="2.55126">
        <ele>90.18</ele>
        <time>2018-09-28T07:36:41Z</time>
      </trkpt>
      <trkpt lat="48.39218" lon="2.55124">
        <ele>88.44</ele>
        <time>2018-09-28T07:36:57Z</time>
      </trkpt>
      <trkpt lat="48.39226" lon="2.55115">
        <ele>85.72</ele>
        <time>2018-09-28T07:37:16Z</time>
      </trkpt>
      <trkpt lat="48.39228" lon="2.55119">
        <ele>85.09</ele>
        <time>2018-09-28T07:37:19Z</time>
      </trkpt>
      <trkpt lat="48.39235" lon="2.55136">
        <ele>85.13</ele>
        <time>2018-09-28T07:37:34Z</time>
      </trkpt>
      <trkpt lat="48.39236" lon="2.55142">
        <ele>85.15</ele>
        <time>2018-09-28T07:37:38Z</time>
      </trkpt>
      <trkpt lat="48.39244" lon="2.55156">
        <ele>84.39</ele>
        <time>2018-09-28T07:37:53Z</time>
      </trkpt>
      <trkpt lat="48.39249" lon="2.55162">
        <ele>84.4</ele>
        <time>2018-09-28T07:37:57Z</time>
      </trkpt>
      <trkpt lat="48.39259" lon="2.55171">
        <ele>83.74</ele>
        <time>2018-09-28T07:38:10Z</time>
      </trkpt>
      <trkpt lat="48.39261" lon="2.55165">
        <ele>83.82</ele>
        <time>2018-09-28T07:38:35Z</time>
      </trkpt>
      <trkpt lat="48.39273" lon="2.5518">
        <ele>83.09</ele>
        <time>2018-09-28T07:38:52Z</time>
      </trkpt>
      <trkpt lat="48.39282" lon="2.552">
        <ele>83.09</ele>
        <time>2018-09-28T07:39:07Z</time>
      </trkpt>
      <trkpt lat="48.39291" lon="2.55214">
        <ele>82.27</ele>
        <time>2018-09-28T07:39:18Z</time>
      </trkpt>
      <trkpt lat="48.39304" lon="2.55227">
        <ele>82.29</ele>
        <time>2018-09-28T07:39:32Z</time>
      </trkpt>
      <trkpt lat="48.39309" lon="2.5523">
        <ele>82.3</ele>
        <time>2018-09-28T07:39:37Z</time>
      </trkpt>
      <trkpt lat="48.39324" lon="2.55242">
        <ele>82.31</ele>
        <time>2018-09-28T07:39:51Z</time>
      </trkpt>
      <trkpt lat="48.39341" lon="2.55241">
        <ele>82.3</ele>
        <time>2018-09-28T07:40:05Z</time>
      </trkpt>
      <trkpt lat="48.39347" lon="2.5524">
        <ele>82.3</ele>
        <time>2018-09-28T07:40:10Z</time>
      </trkpt>
      <trkpt lat="48.39359" lon="2.55238">
        <ele>82.29</ele>
        <time>2018-09-28T07:40:21Z</time>
      </trkpt>
      <trkpt lat="48.39371" lon="2.55235">
        <ele>82.27</ele>
        <time>2018-09-28T07:40:30Z</time>
      </trkpt>
      <trkpt lat="48.39381" lon="2.55226">
        <ele>82.23</ele>
        <time>2018-09-28T07:40:43Z</time>
      </trkpt>
      <trkpt lat="48.39384" lon="2.55228">
        <ele>82.22</ele>
        <time>2018-09-28T07:40:46Z</time>
      </trkpt>
      <trkpt lat="48.39388" lon="2.55226">
        <ele>82.23</ele>
        <time>2018-09-28T07:40:49Z</time>
      </trkpt>
      <trkpt lat="48.39398" lon="2.55214">
        <ele>82.16</ele>
        <time>2018-09-28T07:41:00Z</time>
      </trkpt>
      <trkpt lat="48.39415" lon="2.55206">
        <ele>82.1</ele>
        <time>2018-09-28T07:41:16Z</time>
      </trkpt>
      <trkpt lat="48.39422" lon="2.55189">
        <ele>82.1</ele>
        <time>2018-09-28T07:41:30Z</time>
      </trkpt>
      <trkpt lat="48.39427" lon="2.55182">
        <ele>84.33</ele>
        <time>2018-09-28T07:41:38Z</time>
      </trkpt>
      <trkpt lat="48.39441" lon="2.55173">
        <ele>85.1</ele>
        <time>2018-09-28T07:41:58Z</time>
      </trkpt>
      <trkpt lat="48.39441" lon="2.55163">
        <ele>85.08</ele>
        <time>2018-09-28T07:42:14Z</time>
      </trkpt>
      <trkpt lat="48.39445" lon="2.5515">
        <ele>85.95</ele>
        <time>2018-09-28T07:42:26Z</time>
      </trkpt>
      <trkpt lat="48.39446" lon="2.55131">
        <ele>88.63</ele>
        <time>2018-09-28T07:42:45Z</time>
      </trkpt>
      <trkpt lat="48.39453" lon="2.55118">
        <ele>90.21</ele>
        <time>2018-09-28T07:43:01Z</time>
      </trkpt>
      <trkpt lat="48.39457" lon="2.5509">
        <ele>92.29</ele>
        <time>2018-09-28T07:43:17Z</time>
      </trkpt>
      <trkpt lat="48.39457" lon="2.55069">
        <ele>94.95</ele>
        <time>2018-09-28T07:43:35Z</time>
      </trkpt>
      <trkpt lat="48.39457" lon="2.5505">
        <ele>94.74</ele>
        <time>2018-09-28T07:43:54Z</time>
      </trkpt>
      <trkpt lat="48.39456" lon="2.55032">
        <ele>94.88</ele>
        <time>2018-09-28T07:44:12Z</time>
      </trkpt>
      <trkpt lat="48.39465" lon="2.55005">
        <ele>94.94</ele>
        <time>2018-09-28T07:44:31Z</time>
      </trkpt>
      <trkpt lat="48.39466" lon="2.55002">
        <ele>94.95</ele>
        <time>2018-09-28T07:44:33Z</time>
      </trkpt>
      <trkpt lat="48.39468" lon="2.54986">
        <ele>94.98</ele>
        <time>2018-09-28T07:44:43Z</time>
      </trkpt>
      <trkpt lat="48.39463" lon="2.54965">
        <ele>95.1</ele>
        <time>2018-09-28T07:44:59Z</time>
      </trkpt>
      <trkpt lat="48.39455" lon="2.54952">
        <ele>98.71</ele>
        <time>2018-09-28T07:45:14Z</time>
      </trkpt>
      <trkpt lat="48.39453" lon="2.54937">
        <ele>100.38</ele>
        <time>2018-09-28T07:45:32Z</time>
      </trkpt>
      <trkpt lat="48.39451" lon="2.54918">
        <ele>102.09</ele>
        <time>2018-09-28T07:45:48Z</time>
      </trkpt>
      <trkpt lat="48.39452" lon="2.54902">
        <ele>104.68</ele>
        <time>2018-09-28T07:46:04Z</time>
      </trkpt>
      <trkpt lat="48.39455" lon="2.54889">
        <ele>107.8</ele>
        <time>2018-09-28T07:46:16Z</time>
      </trkpt>
      <trkpt lat="48.39455" lon="2.54889">
        <ele>107.83</ele>
        <time>2018-09-28T07:46:17Z</time>
      </trkpt>
      <trkpt lat="48.39459" lon="2.54876">
        <ele>109.48</ele>
        <time>2018-09-28T07:46:34Z</time>
      </trkpt>
      <trkpt lat="48.39458" lon="2.54862">
        <ele>112.28</ele>
        <time>2018-09-28T07:46:51Z</time>
      </trkpt>
      <trkpt lat="48.3945" lon="2.54847">
        <ele>114.87</ele>
        <time>2018-09-28T07:47:09Z</time>
      </trkpt>
      <trkpt lat="48.39447" lon="2.54836">
        <ele>118.5</ele>
        <time>2018-09-28T07:47:25Z</time>
      </trkpt>
      <trkpt lat="48.39449" lon="2.5483">
        <ele>121.21</ele>
        <time>2018-09-28T07:47:47Z</time>
      </trkpt>
      <trkpt lat="48.39453" lon="2.54823">
        <ele>124.31</ele>
        <time>2018-09-28T07:47:58Z</time>
      </trkpt>
      <trkpt lat="48.39453" lon="2.54821">
        <ele>124.32</ele>
        <time>2018-09-28T07:47:59Z</time>
      </trkpt>
      <trkpt lat="48.39458" lon="2.54806">
        <ele>126.1</ele>
        <time>2018-09-28T07:48:17Z</time>
      </trkpt>
      <trkpt lat="48.39464" lon="2.5479">
        <ele>125.95</ele>
        <time>2018-09-28T07:48:33Z</time>
      </trkpt>
      <trkpt lat="48.39464" lon="2.5479">
        <ele>116.69</ele>
        <time>2018-09-28T07:48:34Z</time>
      </trkpt>
      <trkpt lat="48.39463" lon="2.5479">
        <ele>125.87</ele>
        <time>2018-09-28T07:48:35Z</time>
      </trkpt>
      <trkpt lat="48.39461" lon="2.54788">
        <ele>131.12</ele>
        <time>2018-09-28T07:49:06Z</time>
      </trkpt>
      <trkpt lat="48.39461" lon="2.54788">
        <ele>126.64</ele>
        <time>2018-09-28T07:49:07Z</time>
      </trkpt>
      <trkpt lat="48.39461" lon="2.54777">
        <ele>125.8</ele>
        <time>2018-09-28T07:49:26Z</time>
      </trkpt>
      <trkpt lat="48.39456" lon="2.54776">
        <ele>128.19</ele>
        <time>2018-09-28T07:49:36Z</time>
      </trkpt>
      <trkpt lat="48.39454" lon="2.54773">
        <ele>129.75</ele>
        <time>2018-09-28T07:49:54Z</time>
      </trkpt>
      <trkpt lat="48.39451" lon="2.54772">
        <ele>129.67</ele>
        <time>2018-09-28T07:50:12Z</time>
      </trkpt>
      <trkpt lat="48.39451" lon="2.54774">
        <ele>129.58</ele>
        <time>2018-09-28T07:50:35Z</time>
      </trkpt>
      <trkpt lat="48.39452" lon="2.54775">
        <ele>129.5</ele>
        <time>2018-09-28T07:51:08Z</time>
      </trkpt>
      <trkpt lat="48.3945" lon="2.54784">
        <ele>127.17</ele>
        <time>2018-09-28T07:51:27Z</time>
      </trkpt>
      <trkpt lat="48.39446" lon="2.54787">
        <ele>127.14</ele>
        <time>2018-09-28T07:51:38Z</time>
      </trkpt>
      <trkpt lat="48.39442" lon="2.54791">
        <ele>127.13</ele>
        <time>2018-09-28T07:51:49Z</time>
      </trkpt>
      <trkpt lat="48.3944" lon="2.54793">
        <ele>127.08</ele>
        <time>2018-09-28T07:51:54Z</time>
      </trkpt>
      <trkpt lat="48.39437" lon="2.54798">
        <ele>126.3</ele>
        <time>2018-09-28T07:51:58Z</time>
      </trkpt>
      <trkpt lat="48.39429" lon="2.54795">
        <ele>126.29</ele>
        <time>2018-09-28T07:52:10Z</time>
      </trkpt>
      <trkpt lat="48.39427" lon="2.54793">
        <ele>126.25</ele>
        <time>2018-09-28T07:52:27Z</time>
      </trkpt>
      <trkpt lat="48.39427" lon="2.54793">
        <ele>126.21</ele>
        <time>2018-09-28T07:52:35Z</time>
      </trkpt>
      <trkpt lat="48.39428" lon="2.54783">
        <ele>126.18</ele>
        <time>2018-09-28T07:52:47Z</time>
      </trkpt>
      <trkpt lat="48.39428" lon="2.5477">
        <ele>126.12</ele>
        <time>2018-09-28T07:53:06Z</time>
      </trkpt>
      <trkpt lat="48.39426" lon="2.54761">
        <ele>126.08</ele>
        <time>2018-09-28T07:53:26Z</time>
      </trkpt>
      <trkpt lat="48.39425" lon="2.54759">
        <ele>126.03</ele>
        <time>2018-09-28T07:53:53Z</time>
      </trkpt>
      <trkpt lat="48.39425" lon="2.5476">
        <ele>125.98</ele>
        <time>2018-09-28T07:54:24Z</time>
      </trkpt>
      <trkpt lat="48.39424" lon="2.54759">
        <ele>125.96</ele>
        <time>2018-09-28T07:54:45Z</time>
      </trkpt>
      <trkpt lat="48.39424" lon="2.54754">
        <ele>125.94</ele>
        <time>2018-09-28T07:55:07Z</time>
      </trkpt>
      <trkpt lat="48.39424" lon="2.5475">
        <ele>125.93</ele>
        <time>2018-09-28T07:55:30Z</time>
      </trkpt>
      <trkpt lat="48.39425" lon="2.54748">
        <ele>125.94</ele>
        <time>2018-09-28T07:55:32Z</time>
      </trkpt>
      <trkpt lat="48.39433" lon="2.54743">
        <ele>125.96</ele>
        <time>2018-09-28T07:55:45Z</time>
      </trkpt>
      <trkpt lat="48.39435" lon="2.54739">
        <ele>125.94</ele>
        <time>2018-09-28T07:55:58Z</time>
      </trkpt>
      <trkpt lat="48.3943" lon="2.54738">
        <ele>125.89</ele>
        <time>2018-09-28T07:56:11Z</time>
      </trkpt>
      <trkpt lat="48.39437" lon="2.5474">
        <ele>125.88</ele>
        <time>2018-09-28T07:56:26Z</time>
      </trkpt>
      <trkpt lat="48.39439" lon="2.54737">
        <ele>125.86</ele>
        <time>2018-09-28T07:56:36Z</time>
      </trkpt>
      <trkpt lat="48.3944" lon="2.54737">
        <ele>125.85</ele>
        <time>2018-09-28T07:56:37Z</time>
      </trkpt>
      <trkpt lat="48.39447" lon="2.5473">
        <ele>125.79</ele>
        <time>2018-09-28T07:56:45Z</time>
      </trkpt>
      <trkpt lat="48.39447" lon="2.54718">
        <ele>125.75</ele>
        <time>2018-09-28T07:57:00Z</time>
      </trkpt>
      <trkpt lat="48.39448" lon="2.5471">
        <ele>125.77</ele>
        <time>2018-09-28T07:57:07Z</time>
      </trkpt>
      <trkpt lat="48.3945" lon="2.54695">
        <ele>125.03</ele>
        <time>2018-09-28T07:57:21Z</time>
      </trkpt>
      <trkpt lat="48.39451" lon="2.54693">
        <ele>125.04</ele>
        <time>2018-09-28T07:57:23Z</time>
      </trkpt>
      <trkpt lat="48.39452" lon="2.54682">
        <ele>125.06</ele>
        <time>2018-09-28T07:57:31Z</time>
      </trkpt>
      <trkpt lat="48.39455" lon="2.54671">
        <ele>125.01</ele>
        <time>2018-09-28T07:57:41Z</time>
      </trkpt>
      <trkpt lat="48.39458" lon="2.54656">
        <ele>125.01</ele>
        <time>2018-09-28T07:57:52Z</time>
      </trkpt>
      <trkpt lat="48.39462" lon="2.54639">
        <ele>127.33</ele>
        <time>2018-09-28T07:58:04Z</time>
      </trkpt>
      <trkpt lat="48.39461" lon="2.54636">
        <ele>127.34</ele>
        <time>2018-09-28T07:58:06Z</time>
      </trkpt>
      <trkpt lat="48.39465" lon="2.54631">
        <ele>127.29</ele>
        <time>2018-09-28T07:58:13Z</time>
      </trkpt>
      <trkpt lat="48.39469" lon="2.54632">
        <ele>127.34</ele>
        <time>2018-09-28T07:58:18Z</time>
      </trkpt>
      <trkpt lat="48.39477" lon="2.54623">
        <ele>129.28</ele>
        <time>2018-09-28T07:58:31Z</time>
      </trkpt>
      <trkpt lat="48.39477" lon="2.54618">
        <ele>129.23</ele>
        <time>2018-09-28T07:58:44Z</time>
      </trkpt>
      <trkpt lat="48.39477" lon="2.54613">
        <ele>129.22</ele>
        <time>2018-09-28T07:58:56Z</time>
      </trkpt>
      <trkpt lat="48.39486" lon="2.54606">
        <ele>129.17</ele>
        <time>2018-09-28T07:59:08Z</time>
      </trkpt>
      <trkpt lat="48.39492" lon="2.54604">
        <ele>129.18</ele>
        <time>2018-09-28T07:59:16Z</time>
      </trkpt>
      <trkpt lat="48.39493" lon="2.54602">
        <ele>129.17</ele>
        <time>2018-09-28T07:59:18Z</time>
      </trkpt>
      <trkpt lat="48.39495" lon="2.54597">
        <ele>126.88</ele>
        <time>2018-09-28T07:59:22Z</time>
      </trkpt>
      <trkpt lat="48.39496" lon="2.54597">
        <ele>126.87</ele>
        <time>2018-09-28T07:59:23Z</time>
      </trkpt>
      <trkpt lat="48.395" lon="2.54592">
        <ele>126.86</ele>
        <time>2018-09-28T07:59:28Z</time>
      </trkpt>
      <trkpt lat="48.39501" lon="2.54583">
        <ele>126.86</ele>
        <time>2018-09-28T07:59:34Z</time>
      </trkpt>
      <trkpt lat="48.39506" lon="2.54571">
        <ele>126.93</ele>
        <time>2018-09-28T07:59:44Z</time>
      </trkpt>
      <trkpt lat="48.39508" lon="2.54551">
        <ele>126.89</ele>
        <time>2018-09-28T08:00:00Z</time>
      </trkpt>
      <trkpt lat="48.39507" lon="2.54549">
        <ele>126.94</ele>
        <time>2018-09-28T08:00:14Z</time>
      </trkpt>
      <trkpt lat="48.39505" lon="2.54553">
        <ele>126.95</ele>
        <time>2018-09-28T08:00:18Z</time>
      </trkpt>
      <trkpt lat="48.39496" lon="2.54552">
        <ele>126.96</ele>
        <time>2018-09-28T08:00:29Z</time>
      </trkpt>
      <trkpt lat="48.39491" lon="2.54549">
        <ele>126.97</ele>
        <time>2018-09-28T08:00:34Z</time>
      </trkpt>
      <trkpt lat="48.3948" lon="2.54547">
        <ele>127.04</ele>
        <time>2018-09-28T08:00:47Z</time>
      </trkpt>
      <trkpt lat="48.39476" lon="2.54546">
        <ele>127.06</ele>
        <time>2018-09-28T08:01:04Z</time>
      </trkpt>
      <trkpt lat="48.39471" lon="2.54542">
        <ele>127.09</ele>
        <time>2018-09-28T08:01:33Z</time>
      </trkpt>
      <trkpt lat="48.39472" lon="2.54543">
        <ele>127.06</ele>
        <time>2018-09-28T08:01:54Z</time>
      </trkpt>
      <trkpt lat="48.39473" lon="2.54546">
        <ele>127.05</ele>
        <time>2018-09-28T08:02:10Z</time>
      </trkpt>
      <trkpt lat="48.39472" lon="2.54542">
        <ele>126.17</ele>
        <time>2018-09-28T08:02:37Z</time>
      </trkpt>
      <trkpt lat="48.3947" lon="2.54533">
        <ele>125.3</ele>
        <time>2018-09-28T08:02:51Z</time>
      </trkpt>
      <trkpt lat="48.39466" lon="2.54522">
        <ele>125.28</ele>
        <time>2018-09-28T08:03:03Z</time>
      </trkpt>
      <trkpt lat="48.39463" lon="2.54513">
        <ele>125.25</ele>
        <time>2018-09-28T08:03:13Z</time>
      </trkpt>
      <trkpt lat="48.39463" lon="2.54507">
        <ele>125.22</ele>
        <time>2018-09-28T08:03:25Z</time>
      </trkpt>
      <trkpt lat="48.39463" lon="2.54503">
        <ele>125.19</ele>
        <time>2018-09-28T08:03:27Z</time>
      </trkpt>
      <trkpt lat="48.39463" lon="2.54497">
        <ele>125.2</ele>
        <time>2018-09-28T08:03:31Z</time>
      </trkpt>
      <trkpt lat="48.39464" lon="2.54493">
        <ele>125.17</ele>
        <time>2018-09-28T08:03:34Z</time>
      </trkpt>
      <trkpt lat="48.39467" lon="2.54485">
        <ele>125.18</ele>
        <time>2018-09-28T08:03:40Z</time>
      </trkpt>
      <trkpt lat="48.39467" lon="2.54469">
        <ele>125.14</ele>
        <time>2018-09-28T08:03:51Z</time>
      </trkpt>
      <trkpt lat="48.39463" lon="2.54459">
        <ele>125.12</ele>
        <time>2018-09-28T08:03:57Z</time>
      </trkpt>
      <trkpt lat="48.3946" lon="2.54449">
        <ele>125.12</ele>
        <time>2018-09-28T08:04:03Z</time>
      </trkpt>
      <trkpt lat="48.39459" lon="2.54446">
        <ele>125.11</ele>
        <time>2018-09-28T08:04:05Z</time>
      </trkpt>
      <trkpt lat="48.39459" lon="2.54439">
        <ele>125.12</ele>
        <time>2018-09-28T08:04:10Z</time>
      </trkpt>
      <trkpt lat="48.39462" lon="2.5443">
        <ele>125.11</ele>
        <time>2018-09-28T08:04:16Z</time>
      </trkpt>
      <trkpt lat="48.39463" lon="2.54424">
        <ele>125.12</ele>
        <time>2018-09-28T08:04:20Z</time>
      </trkpt>
      <trkpt lat="48.39464" lon="2.54414">
        <ele>125.09</ele>
        <time>2018-09-28T08:04:27Z</time>
      </trkpt>
      <trkpt lat="48.39471" lon="2.544">
        <ele>125.09</ele>
        <time>2018-09-28T08:04:40Z</time>
      </trkpt>
      <trkpt lat="48.39472" lon="2.54395">
        <ele>125.08</ele>
        <time>2018-09-28T08:04:44Z</time>
      </trkpt>
      <trkpt lat="48.3948" lon="2.54367">
        <ele>125.06</ele>
        <time>2018-09-28T08:05:01Z</time>
      </trkpt>
      <trkpt lat="48.39481" lon="2.54363">
        <ele>125.07</ele>
        <time>2018-09-28T08:05:04Z</time>
      </trkpt>
      <trkpt lat="48.39482" lon="2.54361">
        <ele>125.03</ele>
        <time>2018-09-28T08:05:11Z</time>
      </trkpt>
      <trkpt lat="48.39489" lon="2.54356">
        <ele>125</ele>
        <time>2018-09-28T08:05:25Z</time>
      </trkpt>
      <trkpt lat="48.39494" lon="2.54351">
        <ele>123.2</ele>
        <time>2018-09-28T08:05:42Z</time>
      </trkpt>
      <trkpt lat="48.39497" lon="2.54345">
        <ele>121.55</ele>
        <time>2018-09-28T08:05:54Z</time>
      </trkpt>
      <trkpt lat="48.39503" lon="2.54341">
        <ele>120.85</ele>
        <time>2018-09-28T08:06:06Z</time>
      </trkpt>
      <trkpt lat="48.39504" lon="2.54341">
        <ele>123.32</ele>
        <time>2018-09-28T08:06:08Z</time>
      </trkpt>
      <trkpt lat="48.39512" lon="2.5434">
        <ele>124.99</ele>
        <time>2018-09-28T08:06:23Z</time>
      </trkpt>
      <trkpt lat="48.39519" lon="2.54352">
        <ele>124.76</ele>
        <time>2018-09-28T08:06:42Z</time>
      </trkpt>
      <trkpt lat="48.39519" lon="2.54356">
        <ele>122.43</ele>
        <time>2018-09-28T08:06:46Z</time>
      </trkpt>
      <trkpt lat="48.39523" lon="2.5436">
        <ele>122.44</ele>
        <time>2018-09-28T08:07:04Z</time>
      </trkpt>
      <trkpt lat="48.39524" lon="2.54362">
        <ele>122.4</ele>
        <time>2018-09-28T08:07:16Z</time>
      </trkpt>
      <trkpt lat="48.39532" lon="2.54366">
        <ele>122.34</ele>
        <time>2018-09-28T08:07:38Z</time>
      </trkpt>
      <trkpt lat="48.39534" lon="2.54367">
        <ele>124.74</ele>
        <time>2018-09-28T08:07:47Z</time>
      </trkpt>
      <trkpt lat="48.39539" lon="2.54362">
        <ele>124.64</ele>
        <time>2018-09-28T08:08:01Z</time>
      </trkpt>
      <trkpt lat="48.39542" lon="2.54359">
        <ele>126.32</ele>
        <time>2018-09-28T08:08:18Z</time>
      </trkpt>
      <trkpt lat="48.39544" lon="2.54357">
        <ele>126.22</ele>
        <time>2018-09-28T08:08:45Z</time>
      </trkpt>
      <trkpt lat="48.39543" lon="2.54359">
        <ele>126.13</ele>
        <time>2018-09-28T08:09:16Z</time>
      </trkpt>
      <trkpt lat="48.39547" lon="2.54352">
        <ele>126.02</ele>
        <time>2018-09-28T08:09:36Z</time>
      </trkpt>
      <trkpt lat="48.39547" lon="2.54352">
        <ele>123.68</ele>
        <time>2018-09-28T08:09:52Z</time>
      </trkpt>
      <trkpt lat="48.39549" lon="2.54343">
        <ele>123.65</ele>
        <time>2018-09-28T08:10:12Z</time>
      </trkpt>
      <trkpt lat="48.39551" lon="2.54339">
        <ele>123.63</ele>
        <time>2018-09-28T08:10:26Z</time>
      </trkpt>
      <trkpt lat="48.39553" lon="2.54335">
        <ele>123.62</ele>
        <time>2018-09-28T08:10:43Z</time>
      </trkpt>
      <trkpt lat="48.39551" lon="2.54326">
        <ele>123.56</ele>
        <time>2018-09-28T08:11:01Z</time>
      </trkpt>
      <trkpt lat="48.39547" lon="2.5432">
        <ele>126.26</ele>
        <time>2018-09-28T08:11:10Z</time>
      </trkpt>
      <trkpt lat="48.39546" lon="2.54316">
        <ele>126.22</ele>
        <time>2018-09-28T08:11:19Z</time>
      </trkpt>
      <trkpt lat="48.39542" lon="2.54309">
        <ele>126.2</ele>
        <time>2018-09-28T08:11:25Z</time>
      </trkpt>
      <trkpt lat="48.39541" lon="2.54302">
        <ele>126.18</ele>
        <time>2018-09-28T08:11:30Z</time>
      </trkpt>
      <trkpt lat="48.39534" lon="2.54287">
        <ele>126.15</ele>
        <time>2018-09-28T08:11:45Z</time>
      </trkpt>
      <trkpt lat="48.39533" lon="2.54286">
        <ele>126.14</ele>
        <time>2018-09-28T08:11:51Z</time>
      </trkpt>
      <trkpt lat="48.39531" lon="2.54283">
        <ele>126.07</ele>
        <time>2018-09-28T08:12:04Z</time>
      </trkpt>
      <trkpt lat="48.39531" lon="2.54282">
        <ele>126.07</ele>
        <time>2018-09-28T08:12:05Z</time>
      </trkpt>
      <trkpt lat="48.39531" lon="2.54272">
        <ele>126.03</ele>
        <time>2018-09-28T08:12:20Z</time>
      </trkpt>
      <trkpt lat="48.39535" lon="2.54256">
        <ele>126.03</ele>
        <time>2018-09-28T08:12:32Z</time>
      </trkpt>
      <trkpt lat="48.39536" lon="2.5425">
        <ele>125.97</ele>
        <time>2018-09-28T08:12:40Z</time>
      </trkpt>
      <trkpt lat="48.39537" lon="2.54245">
        <ele>125.96</ele>
        <time>2018-09-28T08:12:44Z</time>
      </trkpt>
      <trkpt lat="48.39546" lon="2.54231">
        <ele>125.92</ele>
        <time>2018-09-28T08:12:58Z</time>
      </trkpt>
      <trkpt lat="48.39551" lon="2.54217">
        <ele>125.91</ele>
        <time>2018-09-28T08:13:07Z</time>
      </trkpt>
      <trkpt lat="48.39559" lon="2.54199">
        <ele>125.9</ele>
        <time>2018-09-28T08:13:19Z</time>
      </trkpt>
      <trkpt lat="48.39571" lon="2.54184">
        <ele>125.89</ele>
        <time>2018-09-28T08:13:34Z</time>
      </trkpt>
      <trkpt lat="48.39583" lon="2.54172">
        <ele>125.86</ele>
        <time>2018-09-28T08:13:49Z</time>
      </trkpt>
      <trkpt lat="48.39588" lon="2.5416">
        <ele>125.82</ele>
        <time>2018-09-28T08:14:01Z</time>
      </trkpt>
      <trkpt lat="48.39589" lon="2.54158">
        <ele>123.44</ele>
        <time>2018-09-28T08:14:04Z</time>
      </trkpt>
      <trkpt lat="48.39591" lon="2.54151">
        <ele>122.55</ele>
        <time>2018-09-28T08:14:19Z</time>
      </trkpt>
      <trkpt lat="48.3959" lon="2.54137">
        <ele>121.75</ele>
        <time>2018-09-28T08:14:35Z</time>
      </trkpt>
      <trkpt lat="48.39592" lon="2.54121">
        <ele>120.91</ele>
        <time>2018-09-28T08:14:48Z</time>
      </trkpt>
      <trkpt lat="48.39593" lon="2.54114">
        <ele>120.95</ele>
        <time>2018-09-28T08:15:07Z</time>
      </trkpt>
      <trkpt lat="48.39593" lon="2.54113">
        <ele>120.95</ele>
        <time>2018-09-28T08:15:22Z</time>
      </trkpt>
      <trkpt lat="48.396" lon="2.54109">
        <ele>120.94</ele>
        <time>2018-09-28T08:15:37Z</time>
      </trkpt>
      <trkpt lat="48.39601" lon="2.54106">
        <ele>120.94</ele>
        <time>2018-09-28T08:15:40Z</time>
      </trkpt>
      <trkpt lat="48.39596" lon="2.54098">
        <ele>123.76</ele>
        <time>2018-09-28T08:15:48Z</time>
      </trkpt>
      <trkpt lat="48.39602" lon="2.54088">
        <ele>123.59</ele>
        <time>2018-09-28T08:16:04Z</time>
      </trkpt>
      <trkpt lat="48.39606" lon="2.54077">
        <ele>123.53</ele>
        <time>2018-09-28T08:16:18Z</time>
      </trkpt>
      <trkpt lat="48.39607" lon="2.5407">
        <ele>121.29</ele>
        <time>2018-09-28T08:16:29Z</time>
      </trkpt>
      <trkpt lat="48.39608" lon="2.54068">
        <ele>121.28</ele>
        <time>2018-09-28T08:16:31Z</time>
      </trkpt>
      <trkpt lat="48.39614" lon="2.54056">
        <ele>120.46</ele>
        <time>2018-09-28T08:16:45Z</time>
      </trkpt>
      <trkpt lat="48.39616" lon="2.54054">
        <ele>120.43</ele>
        <time>2018-09-28T08:17:04Z</time>
      </trkpt>
      <trkpt lat="48.39622" lon="2.54058">
        <ele>119.37</ele>
        <time>2018-09-28T08:17:20Z</time>
      </trkpt>
      <trkpt lat="48.39628" lon="2.54043">
        <ele>119.42</ele>
        <time>2018-09-28T08:17:35Z</time>
      </trkpt>
      <trkpt lat="48.39627" lon="2.5404">
        <ele>119.43</ele>
        <time>2018-09-28T08:17:37Z</time>
      </trkpt>
      <trkpt lat="48.39625" lon="2.54025">
        <ele>119.4</ele>
        <time>2018-09-28T08:17:50Z</time>
      </trkpt>
      <trkpt lat="48.39623" lon="2.54013">
        <ele>118.5</ele>
        <time>2018-09-28T08:18:05Z</time>
      </trkpt>
      <trkpt lat="48.39618" lon="2.54014">
        <ele>120.85</ele>
        <time>2018-09-28T08:18:14Z</time>
      </trkpt>
      <trkpt lat="48.39608" lon="2.54008">
        <ele>122.48</ele>
        <time>2018-09-28T08:18:29Z</time>
      </trkpt>
      <trkpt lat="48.39606" lon="2.54006">
        <ele>123.43</ele>
        <time>2018-09-28T08:18:42Z</time>
      </trkpt>
      <trkpt lat="48.39604" lon="2.53999">
        <ele>123.3</ele>
        <time>2018-09-28T08:18:48Z</time>
      </trkpt>
      <trkpt lat="48.39597" lon="2.53988">
        <ele>123.26</ele>
        <time>2018-09-28T08:18:59Z</time>
      </trkpt>
      <trkpt lat="48.39596" lon="2.53974">
        <ele>123.19</ele>
        <time>2018-09-28T08:19:09Z</time>
      </trkpt>
      <trkpt lat="48.39599" lon="2.53964">
        <ele>123.14</ele>
        <time>2018-09-28T08:19:15Z</time>
      </trkpt>
      <trkpt lat="48.39604" lon="2.53942">
        <ele>123.1</ele>
        <time>2018-09-28T08:19:30Z</time>
      </trkpt>
      <trkpt lat="48.39603" lon="2.53938">
        <ele>123.01</ele>
        <time>2018-09-28T08:19:49Z</time>
      </trkpt>
      <trkpt lat="48.39602" lon="2.53931">
        <ele>122.95</ele>
        <time>2018-09-28T08:20:04Z</time>
      </trkpt>
      <trkpt lat="48.39601" lon="2.53914">
        <ele>122.86</ele>
        <time>2018-09-28T08:20:19Z</time>
      </trkpt>
      <trkpt lat="48.39601" lon="2.53909">
        <ele>122.88</ele>
        <time>2018-09-28T08:20:23Z</time>
      </trkpt>
      <trkpt lat="48.39605" lon="2.53897">
        <ele>120.53</ele>
        <time>2018-09-28T08:20:38Z</time>
      </trkpt>
      <trkpt lat="48.39613" lon="2.53887">
        <ele>118.77</ele>
        <time>2018-09-28T08:20:56Z</time>
      </trkpt>
      <trkpt lat="48.39613" lon="2.53881">
        <ele>118.8</ele>
        <time>2018-09-28T08:21:19Z</time>
      </trkpt>
      <trkpt lat="48.39615" lon="2.53873">
        <ele>117.03</ele>
        <time>2018-09-28T08:21:29Z</time>
      </trkpt>
      <trkpt lat="48.39624" lon="2.53867">
        <ele>116.18</ele>
        <time>2018-09-28T08:21:42Z</time>
      </trkpt>
      <trkpt lat="48.39631" lon="2.5387">
        <ele>118.53</ele>
        <time>2018-09-28T08:21:58Z</time>
      </trkpt>
      <trkpt lat="48.39637" lon="2.53864">
        <ele>121.11</ele>
        <time>2018-09-28T08:22:14Z</time>
      </trkpt>
      <trkpt lat="48.39642" lon="2.53846">
        <ele>122.46</ele>
        <time>2018-09-28T08:22:30Z</time>
      </trkpt>
      <trkpt lat="48.39644" lon="2.53828">
        <ele>123.27</ele>
        <time>2018-09-28T08:22:45Z</time>
      </trkpt>
      <trkpt lat="48.39646" lon="2.53821">
        <ele>123.22</ele>
        <time>2018-09-28T08:22:54Z</time>
      </trkpt>
      <trkpt lat="48.3965" lon="2.53815">
        <ele>123.91</ele>
        <time>2018-09-28T08:23:08Z</time>
      </trkpt>
      <trkpt lat="48.39654" lon="2.5381">
        <ele>123.84</ele>
        <time>2018-09-28T08:23:24Z</time>
      </trkpt>
      <trkpt lat="48.39655" lon="2.53805">
        <ele>123.75</ele>
        <time>2018-09-28T08:23:47Z</time>
      </trkpt>
      <trkpt lat="48.39657" lon="2.53799">
        <ele>123.67</ele>
        <time>2018-09-28T08:24:13Z</time>
      </trkpt>
      <trkpt lat="48.39657" lon="2.53789">
        <ele>123.59</ele>
        <time>2018-09-28T08:24:26Z</time>
      </trkpt>
      <trkpt lat="48.39659" lon="2.53789">
        <ele>125.58</ele>
        <time>2018-09-28T08:24:38Z</time>
      </trkpt>
      <trkpt lat="48.39659" lon="2.53789">
        <ele>121.62</ele>
        <time>2018-09-28T08:24:39Z</time>
      </trkpt>
      <trkpt lat="48.39659" lon="2.53789">
        <ele>124.1</ele>
        <time>2018-09-28T08:24:40Z</time>
      </trkpt>
      <trkpt lat="48.39657" lon="2.53781">
        <ele>123.94</ele>
        <time>2018-09-28T08:25:10Z</time>
      </trkpt>
      <trkpt lat="48.39656" lon="2.53778">
        <ele>123.93</ele>
        <time>2018-09-28T08:25:12Z</time>
      </trkpt>
      <trkpt lat="48.39654" lon="2.53765">
        <ele>123.9</ele>
        <time>2018-09-28T08:25:20Z</time>
      </trkpt>
      <trkpt lat="48.39644" lon="2.53753">
        <ele>123.8</ele>
        <time>2018-09-28T08:25:38Z</time>
      </trkpt>
      <trkpt lat="48.39643" lon="2.53747">
        <ele>123.75</ele>
        <time>2018-09-28T08:25:49Z</time>
      </trkpt>
      <trkpt lat="48.39644" lon="2.53723">
        <ele>123.68</ele>
        <time>2018-09-28T08:26:05Z</time>
      </trkpt>
      <trkpt lat="48.39644" lon="2.53697">
        <ele>123.59</ele>
        <time>2018-09-28T08:26:20Z</time>
      </trkpt>
      <trkpt lat="48.39642" lon="2.53678">
        <ele>123.56</ele>
        <time>2018-09-28T08:26:33Z</time>
      </trkpt>
      <trkpt lat="48.39648" lon="2.53674">
        <ele>123.54</ele>
        <time>2018-09-28T08:26:39Z</time>
      </trkpt>
      <trkpt lat="48.3965" lon="2.53669">
        <ele>123.53</ele>
        <time>2018-09-28T08:26:43Z</time>
      </trkpt>
      <trkpt lat="48.39649" lon="2.53657">
        <ele>123.48</ele>
        <time>2018-09-28T08:26:57Z</time>
      </trkpt>
      <trkpt lat="48.39647" lon="2.53655">
        <ele>123.36</ele>
        <time>2018-09-28T08:27:19Z</time>
      </trkpt>
      <trkpt lat="48.39648" lon="2.53654">
        <ele>123.28</ele>
        <time>2018-09-28T08:27:36Z</time>
      </trkpt>
      <trkpt lat="48.39651" lon="2.53653">
        <ele>123.26</ele>
        <time>2018-09-28T08:27:42Z</time>
      </trkpt>
      <trkpt lat="48.39654" lon="2.53651">
        <ele>123.22</ele>
        <time>2018-09-28T08:27:45Z</time>
      </trkpt>
      <trkpt lat="48.39657" lon="2.53649">
        <ele>123.21</ele>
        <time>2018-09-28T08:27:47Z</time>
      </trkpt>
      <trkpt lat="48.39662" lon="2.53646">
        <ele>123.2</ele>
        <time>2018-09-28T08:27:52Z</time>
      </trkpt>
      <trkpt lat="48.39664" lon="2.53641">
        <ele>120.88</ele>
        <time>2018-09-28T08:27:55Z</time>
      </trkpt>
      <trkpt lat="48.3967" lon="2.53638">
        <ele>120.89</ele>
        <time>2018-09-28T08:28:06Z</time>
      </trkpt>
      <trkpt lat="48.39674" lon="2.53637">
        <ele>120.87</ele>
        <time>2018-09-28T08:28:11Z</time>
      </trkpt>
      <trkpt lat="48.39676" lon="2.53636">
        <ele>120.86</ele>
        <time>2018-09-28T08:28:14Z</time>
      </trkpt>
      <trkpt lat="48.39678" lon="2.53637">
        <ele>120.86</ele>
        <time>2018-09-28T08:28:16Z</time>
      </trkpt>
      <trkpt lat="48.39681" lon="2.53634">
        <ele>120.83</ele>
        <time>2018-09-28T08:28:20Z</time>
      </trkpt>
      <trkpt lat="48.39687" lon="2.53626">
        <ele>120.82</ele>
        <time>2018-09-28T08:28:34Z</time>
      </trkpt>
      <trkpt lat="48.39689" lon="2.5362">
        <ele>120.76</ele>
        <time>2018-09-28T08:28:57Z</time>
      </trkpt>
      <trkpt lat="48.39692" lon="2.53602">
        <ele>120.75</ele>
        <time>2018-09-28T08:29:12Z</time>
      </trkpt>
      <trkpt lat="48.39694" lon="2.53592">
        <ele>120.72</ele>
        <time>2018-09-28T08:29:27Z</time>
      </trkpt>
      <trkpt lat="48.39692" lon="2.53592">
        <ele>120.7</ele>
        <time>2018-09-28T08:29:55Z</time>
      </trkpt>
      <trkpt lat="48.39693" lon="2.53591">
        <ele>119.22</ele>
        <time>2018-09-28T08:30:23Z</time>
      </trkpt>
      <trkpt lat="48.39693" lon="2.53591">
        <ele>124.01</ele>
        <time>2018-09-28T08:30:24Z</time>
      </trkpt>
      <trkpt lat="48.39693" lon="2.53591">
        <ele>121.26</ele>
        <time>2018-09-28T08:30:25Z</time>
      </trkpt>
      <trkpt lat="48.39696" lon="2.53588">
        <ele>121.2</ele>
        <time>2018-09-28T08:30:46Z</time>
      </trkpt>
      <trkpt lat="48.397" lon="2.53583">
        <ele>121.21</ele>
        <time>2018-09-28T08:31:04Z</time>
      </trkpt>
      <trkpt lat="48.39695" lon="2.53582">
        <ele>121.21</ele>
        <time>2018-09-28T08:31:15Z</time>
      </trkpt>
      <trkpt lat="48.39684" lon="2.53573">
        <ele>121.2</ele>
        <time>2018-09-28T08:31:29Z</time>
      </trkpt>
      <trkpt lat="48.39684" lon="2.53559">
        <ele>121.16</ele>
        <time>2018-09-28T08:31:45Z</time>
      </trkpt>
      <trkpt lat="48.39685" lon="2.53554">
        <ele>121.16</ele>
        <time>2018-09-28T08:31:49Z</time>
      </trkpt>
      <trkpt lat="48.39684" lon="2.53543">
        <ele>121.14</ele>
        <time>2018-09-28T08:32:04Z</time>
      </trkpt>
      <trkpt lat="48.39687" lon="2.53525">
        <ele>121.13</ele>
        <time>2018-09-28T08:32:18Z</time>
      </trkpt>
      <trkpt lat="48.39688" lon="2.53499">
        <ele>120.4</ele>
        <time>2018-09-28T08:32:35Z</time>
      </trkpt>
      <trkpt lat="48.39689" lon="2.53494">
        <ele>120.4</ele>
        <time>2018-09-28T08:32:38Z</time>
      </trkpt>
      <trkpt lat="48.39694" lon="2.53484">
        <ele>120.4</ele>
        <time>2018-09-28T08:32:45Z</time>
      </trkpt>
      <trkpt lat="48.39694" lon="2.53481">
        <ele>120.4</ele>
        <time>2018-09-28T08:32:47Z</time>
      </trkpt>
      <trkpt lat="48.397" lon="2.5346">
        <ele>119.59</ele>
        <time>2018-09-28T08:33:00Z</time>
      </trkpt>
      <trkpt lat="48.39711" lon="2.53432">
        <ele>119.59</ele>
        <time>2018-09-28T08:33:18Z</time>
      </trkpt>
      <trkpt lat="48.39722" lon="2.53406">
        <ele>119.61</ele>
        <time>2018-09-28T08:33:35Z</time>
      </trkpt>
      <trkpt lat="48.39723" lon="2.53402">
        <ele>119.61</ele>
        <time>2018-09-28T08:33:37Z</time>
      </trkpt>
      <trkpt lat="48.39733" lon="2.53375">
        <ele>119.66</ele>
        <time>2018-09-28T08:33:55Z</time>
      </trkpt>
      <trkpt lat="48.39738" lon="2.53357">
        <ele>119.64</ele>
        <time>2018-09-28T08:34:10Z</time>
      </trkpt>
      <trkpt lat="48.39746" lon="2.53333">
        <ele>119.61</ele>
        <time>2018-09-28T08:34:26Z</time>
      </trkpt>
      <trkpt lat="48.39745" lon="2.53326">
        <ele>118.75</ele>
        <time>2018-09-28T08:34:39Z</time>
      </trkpt>
      <trkpt lat="48.39745" lon="2.53326">
        <ele>118.79</ele>
        <time>2018-09-28T08:34:59Z</time>
      </trkpt>
      <trkpt lat="48.39746" lon="2.53315">
        <ele>118.77</ele>
        <time>2018-09-28T08:35:14Z</time>
      </trkpt>
      <trkpt lat="48.39751" lon="2.53298">
        <ele>118.86</ele>
        <time>2018-09-28T08:35:27Z</time>
      </trkpt>
      <trkpt lat="48.39752" lon="2.53297">
        <ele>118.83</ele>
        <time>2018-09-28T08:35:28Z</time>
      </trkpt>
      <trkpt lat="48.39753" lon="2.53292">
        <ele>118.74</ele>
        <time>2018-09-28T08:35:39Z</time>
      </trkpt>
      <trkpt lat="48.39753" lon="2.53282">
        <ele>118.7</ele>
        <time>2018-09-28T08:35:57Z</time>
      </trkpt>
      <trkpt lat="48.3975" lon="2.53282">
        <ele>118.6</ele>
        <time>2018-09-28T08:36:31Z</time>
      </trkpt>
      <trkpt lat="48.3975" lon="2.53266">
        <ele>118.53</ele>
        <time>2018-09-28T08:36:53Z</time>
      </trkpt>
      <trkpt lat="48.39749" lon="2.5325">
        <ele>118.51</ele>
        <time>2018-09-28T08:37:06Z</time>
      </trkpt>
      <trkpt lat="48.39746" lon="2.5324">
        <ele>118.46</ele>
        <time>2018-09-28T08:37:21Z</time>
      </trkpt>
      <trkpt lat="48.39745" lon="2.53232">
        <ele>120.74</ele>
        <time>2018-09-28T08:37:28Z</time>
      </trkpt>
      <trkpt lat="48.39746" lon="2.53215">
        <ele>120.67</ele>
        <time>2018-09-28T08:37:42Z</time>
      </trkpt>
      <trkpt lat="48.39747" lon="2.53202">
        <ele>120.65</ele>
        <time>2018-09-28T08:37:59Z</time>
      </trkpt>
      <trkpt lat="48.39745" lon="2.53187">
        <ele>120.67</ele>
        <time>2018-09-28T08:38:15Z</time>
      </trkpt>
      <trkpt lat="48.39735" lon="2.53182">
        <ele>121.45</ele>
        <time>2018-09-28T08:38:33Z</time>
      </trkpt>
      <trkpt lat="48.39725" lon="2.53174">
        <ele>121.36</ele>
        <time>2018-09-28T08:38:49Z</time>
      </trkpt>
      <trkpt lat="48.3972" lon="2.53169">
        <ele>121.37</ele>
        <time>2018-09-28T08:39:28Z</time>
      </trkpt>
      <trkpt lat="48.39721" lon="2.53172">
        <ele>121.39</ele>
        <time>2018-09-28T08:39:46Z</time>
      </trkpt>
      <trkpt lat="48.39717" lon="2.53165">
        <ele>121.39</ele>
        <time>2018-09-28T08:40:04Z</time>
      </trkpt>
      <trkpt lat="48.39716" lon="2.53154">
        <ele>121.39</ele>
        <time>2018-09-28T08:40:15Z</time>
      </trkpt>
      <trkpt lat="48.3971" lon="2.53141">
        <ele>121.41</ele>
        <time>2018-09-28T08:40:27Z</time>
      </trkpt>
      <trkpt lat="48.39698" lon="2.53131">
        <ele>121.45</ele>
        <time>2018-09-28T08:40:41Z</time>
      </trkpt>
      <trkpt lat="48.39691" lon="2.53124">
        <ele>121.48</ele>
        <time>2018-09-28T08:40:56Z</time>
      </trkpt>
      <trkpt lat="48.39686" lon="2.5311">
        <ele>121.49</ele>
        <time>2018-09-28T08:41:08Z</time>
      </trkpt>
      <trkpt lat="48.39685" lon="2.53105">
        <ele>121.48</ele>
        <time>2018-09-28T08:41:12Z</time>
      </trkpt>
      <trkpt lat="48.39684" lon="2.53091">
        <ele>121.5</ele>
        <time>2018-09-28T08:41:20Z</time>
      </trkpt>
      <trkpt lat="48.39677" lon="2.5308">
        <ele>121.52</ele>
        <time>2018-09-28T08:41:33Z</time>
      </trkpt>
      <trkpt lat="48.39674" lon="2.53076">
        <ele>121.51</ele>
        <time>2018-09-28T08:41:43Z</time>
      </trkpt>
      <trkpt lat="48.39668" lon="2.53073">
        <ele>121.52</ele>
        <time>2018-09-28T08:41:49Z</time>
      </trkpt>
      <trkpt lat="48.39669" lon="2.53068">
        <ele>121.51</ele>
        <time>2018-09-28T08:41:52Z</time>
      </trkpt>
      <trkpt lat="48.39665" lon="2.53057">
        <ele>121.55</ele>
        <time>2018-09-28T08:41:59Z</time>
      </trkpt>
      <trkpt lat="48.39662" lon="2.53033">
        <ele>121.55</ele>
        <time>2018-09-28T08:42:15Z</time>
      </trkpt>
      <trkpt lat="48.39664" lon="2.53019">
        <ele>121.55</ele>
        <time>2018-09-28T08:42:28Z</time>
      </trkpt>
      <trkpt lat="48.39665" lon="2.53013">
        <ele>121.56</ele>
        <time>2018-09-28T08:42:32Z</time>
      </trkpt>
      <trkpt lat="48.39676" lon="2.52993">
        <ele>121.56</ele>
        <time>2018-09-28T08:42:49Z</time>
      </trkpt>
      <trkpt lat="48.39676" lon="2.52993">
        <ele>121.56</ele>
        <time>2018-09-28T08:42:50Z</time>
      </trkpt>
      <trkpt lat="48.39684" lon="2.5299">
        <ele>121.57</ele>
        <time>2018-09-28T08:43:04Z</time>
      </trkpt>
      <trkpt lat="48.39687" lon="2.52989">
        <ele>121.58</ele>
        <time>2018-09-28T08:43:09Z</time>
      </trkpt>
      <trkpt lat="48.3969" lon="2.52991">
        <ele>121.57</ele>
        <time>2018-09-28T08:43:17Z</time>
      </trkpt>
      <trkpt lat="48.39694" lon="2.5299">
        <ele>121.57</ele>
        <time>2018-09-28T08:43:28Z</time>
      </trkpt>
      <trkpt lat="48.39703" lon="2.52989">
        <ele>121.56</ele>
        <time>2018-09-28T08:43:38Z</time>
      </trkpt>
      <trkpt lat="48.39708" lon="2.52974">
        <ele>121.54</ele>
        <time>2018-09-28T08:43:49Z</time>
      </trkpt>
      <trkpt lat="48.39709" lon="2.52969">
        <ele>121.54</ele>
        <time>2018-09-28T08:43:53Z</time>
      </trkpt>
      <trkpt lat="48.39713" lon="2.52961">
        <ele>122.46</ele>
        <time>2018-09-28T08:44:02Z</time>
      </trkpt>
      <trkpt lat="48.39714" lon="2.52957">
        <ele>122.43</ele>
        <time>2018-09-28T08:44:16Z</time>
      </trkpt>
      <trkpt lat="48.39718" lon="2.5295">
        <ele>122.43</ele>
        <time>2018-09-28T08:44:28Z</time>
      </trkpt>
      <trkpt lat="48.39722" lon="2.52955">
        <ele>122.43</ele>
        <time>2018-09-28T08:44:40Z</time>
      </trkpt>
      <trkpt lat="48.39724" lon="2.52962">
        <ele>122.42</ele>
        <time>2018-09-28T08:45:03Z</time>
      </trkpt>
      <trkpt lat="48.39724" lon="2.52963">
        <ele>122.42</ele>
        <time>2018-09-28T08:45:04Z</time>
      </trkpt>
      <trkpt lat="48.39731" lon="2.52965">
        <ele>122.4</ele>
        <time>2018-09-28T08:45:13Z</time>
      </trkpt>
      <trkpt lat="48.39738" lon="2.52962">
        <ele>122.41</ele>
        <time>2018-09-28T08:45:22Z</time>
      </trkpt>
      <trkpt lat="48.39747" lon="2.52958">
        <ele>123.47</ele>
        <time>2018-09-28T08:45:35Z</time>
      </trkpt>
      <trkpt lat="48.39752" lon="2.5295">
        <ele>123.46</ele>
        <time>2018-09-28T08:45:47Z</time>
      </trkpt>
      <trkpt lat="48.39754" lon="2.52943">
        <ele>124.31</ele>
        <time>2018-09-28T08:46:03Z</time>
      </trkpt>
      <trkpt lat="48.39758" lon="2.52937">
        <ele>124.3</ele>
        <time>2018-09-28T08:46:16Z</time>
      </trkpt>
      <trkpt lat="48.39762" lon="2.52924">
        <ele>124.26</ele>
        <time>2018-09-28T08:46:26Z</time>
      </trkpt>
      <trkpt lat="48.39761" lon="2.52916">
        <ele>124.23</ele>
        <time>2018-09-28T08:46:31Z</time>
      </trkpt>
      <trkpt lat="48.39762" lon="2.52908">
        <ele>121.96</ele>
        <time>2018-09-28T08:46:40Z</time>
      </trkpt>
      <trkpt lat="48.39764" lon="2.52904">
        <ele>122.04</ele>
        <time>2018-09-28T08:47:04Z</time>
      </trkpt>
      <trkpt lat="48.39769" lon="2.52901">
        <ele>122</ele>
        <time>2018-09-28T08:47:16Z</time>
      </trkpt>
      <trkpt lat="48.39774" lon="2.52889">
        <ele>122</ele>
        <time>2018-09-28T08:47:28Z</time>
      </trkpt>
      <trkpt lat="48.39774" lon="2.5288">
        <ele>122.02</ele>
        <time>2018-09-28T08:47:44Z</time>
      </trkpt>
      <trkpt lat="48.39774" lon="2.52866">
        <ele>122.01</ele>
        <time>2018-09-28T08:48:06Z</time>
      </trkpt>
      <trkpt lat="48.39782" lon="2.52858">
        <ele>120.39</ele>
        <time>2018-09-28T08:48:23Z</time>
      </trkpt>
      <trkpt lat="48.3979" lon="2.52848">
        <ele>117.58</ele>
        <time>2018-09-28T08:48:40Z</time>
      </trkpt>
      <trkpt lat="48.39802" lon="2.52845">
        <ele>117.67</ele>
        <time>2018-09-28T08:48:54Z</time>
      </trkpt>
      <trkpt lat="48.39808" lon="2.52844">
        <ele>120</ele>
        <time>2018-09-28T08:49:02Z</time>
      </trkpt>
      <trkpt lat="48.39817" lon="2.52849">
        <ele>120.87</ele>
        <time>2018-09-28T08:49:16Z</time>
      </trkpt>
      <trkpt lat="48.3982" lon="2.52852">
        <ele>120.83</ele>
        <time>2018-09-28T08:49:21Z</time>
      </trkpt>
      <trkpt lat="48.39827" lon="2.52853">
        <ele>120.81</ele>
        <time>2018-09-28T08:49:30Z</time>
      </trkpt>
      <trkpt lat="48.39835" lon="2.5284">
        <ele>121.73</ele>
        <time>2018-09-28T08:49:45Z</time>
      </trkpt>
      <trkpt lat="48.39836" lon="2.52836">
        <ele>121.74</ele>
        <time>2018-09-28T08:49:49Z</time>
      </trkpt>
      <trkpt lat="48.39839" lon="2.52821">
        <ele>121.72</ele>
        <time>2018-09-28T08:50:03Z</time>
      </trkpt>
      <trkpt lat="48.39839" lon="2.52817">
        <ele>121.68</ele>
        <time>2018-09-28T08:50:29Z</time>
      </trkpt>
      <trkpt lat="48.39841" lon="2.52819">
        <ele>121.63</ele>
        <time>2018-09-28T08:50:50Z</time>
      </trkpt>
      <trkpt lat="48.39842" lon="2.52819">
        <ele>121.58</ele>
        <time>2018-09-28T08:51:11Z</time>
      </trkpt>
      <trkpt lat="48.39841" lon="2.52816">
        <ele>121.49</ele>
        <time>2018-09-28T08:51:38Z</time>
      </trkpt>
      <trkpt lat="48.3984" lon="2.52812">
        <ele>121.47</ele>
        <time>2018-09-28T08:51:50Z</time>
      </trkpt>
      <trkpt lat="48.39837" lon="2.5281">
        <ele>121.43</ele>
        <time>2018-09-28T08:51:58Z</time>
      </trkpt>
      <trkpt lat="48.39831" lon="2.52798">
        <ele>121.39</ele>
        <time>2018-09-28T08:52:12Z</time>
      </trkpt>
      <trkpt lat="48.39831" lon="2.52792">
        <ele>121.37</ele>
        <time>2018-09-28T08:52:16Z</time>
      </trkpt>
      <trkpt lat="48.39823" lon="2.52777">
        <ele>121.34</ele>
        <time>2018-09-28T08:52:33Z</time>
      </trkpt>
      <trkpt lat="48.39817" lon="2.52762">
        <ele>121.32</ele>
        <time>2018-09-28T08:52:49Z</time>
      </trkpt>
      <trkpt lat="48.39815" lon="2.5275">
        <ele>121.33</ele>
        <time>2018-09-28T08:53:02Z</time>
      </trkpt>
      <trkpt lat="48.39805" lon="2.52734">
        <ele>121.31</ele>
        <time>2018-09-28T08:53:19Z</time>
      </trkpt>
      <trkpt lat="48.39796" lon="2.52738">
        <ele>121.26</ele>
        <time>2018-09-28T08:53:32Z</time>
      </trkpt>
      <trkpt lat="48.39779" lon="2.52729">
        <ele>121.23</ele>
        <time>2018-09-28T08:53:53Z</time>
      </trkpt>
      <trkpt lat="48.39773" lon="2.52718">
        <ele>121.31</ele>
        <time>2018-09-28T08:54:07Z</time>
      </trkpt>
      <trkpt lat="48.39775" lon="2.52704">
        <ele>121.22</ele>
        <time>2018-09-28T08:54:16Z</time>
      </trkpt>
      <trkpt lat="48.39775" lon="2.527">
        <ele>121.2</ele>
        <time>2018-09-28T08:54:19Z</time>
      </trkpt>
      <trkpt lat="48.39778" lon="2.52695">
        <ele>121.22</ele>
        <time>2018-09-28T08:54:25Z</time>
      </trkpt>
      <trkpt lat="48.39783" lon="2.52686">
        <ele>121.25</ele>
        <time>2018-09-28T08:54:40Z</time>
      </trkpt>
      <trkpt lat="48.39787" lon="2.52671">
        <ele>121.26</ele>
        <time>2018-09-28T08:54:56Z</time>
      </trkpt>
      <trkpt lat="48.39787" lon="2.5267">
        <ele>121.27</ele>
        <time>2018-09-28T08:54:57Z</time>
      </trkpt>
      <trkpt lat="48.39787" lon="2.52651">
        <ele>121.28</ele>
        <time>2018-09-28T08:55:10Z</time>
      </trkpt>
      <trkpt lat="48.39788" lon="2.52644">
        <ele>121.28</ele>
        <time>2018-09-28T08:55:15Z</time>
      </trkpt>
      <trkpt lat="48.39796" lon="2.52633">
        <ele>121.29</ele>
        <time>2018-09-28T08:55:28Z</time>
      </trkpt>
      <trkpt lat="48.398" lon="2.52626">
        <ele>121.31</ele>
        <time>2018-09-28T08:55:44Z</time>
      </trkpt>
      <trkpt lat="48.39803" lon="2.52618">
        <ele>121.28</ele>
        <time>2018-09-28T08:55:58Z</time>
      </trkpt>
      <trkpt lat="48.39807" lon="2.52604">
        <ele>121.24</ele>
        <time>2018-09-28T08:56:11Z</time>
      </trkpt>
      <trkpt lat="48.39809" lon="2.526">
        <ele>121.24</ele>
        <time>2018-09-28T08:56:15Z</time>
      </trkpt>
      <trkpt lat="48.39811" lon="2.52599">
        <ele>121.24</ele>
        <time>2018-09-28T08:56:18Z</time>
      </trkpt>
      <trkpt lat="48.39816" lon="2.52589">
        <ele>121.26</ele>
        <time>2018-09-28T08:56:26Z</time>
      </trkpt>
      <trkpt lat="48.3982" lon="2.52582">
        <ele>121.26</ele>
        <time>2018-09-28T08:56:31Z</time>
      </trkpt>
      <trkpt lat="48.39827" lon="2.5257">
        <ele>121.23</ele>
        <time>2018-09-28T08:56:43Z</time>
      </trkpt>
      <trkpt lat="48.39832" lon="2.52556">
        <ele>121.21</ele>
        <time>2018-09-28T08:56:59Z</time>
      </trkpt>
      <trkpt lat="48.39834" lon="2.52548">
        <ele>121.2</ele>
        <time>2018-09-28T08:57:04Z</time>
      </trkpt>
      <trkpt lat="48.39834" lon="2.52535">
        <ele>121.14</ele>
        <time>2018-09-28T08:57:19Z</time>
      </trkpt>
      <trkpt lat="48.39834" lon="2.52531">
        <ele>121.23</ele>
        <time>2018-09-28T08:57:22Z</time>
      </trkpt>
      <trkpt lat="48.39834" lon="2.52514">
        <ele>121.2</ele>
        <time>2018-09-28T08:57:35Z</time>
      </trkpt>
      <trkpt lat="48.39833" lon="2.52513">
        <ele>119</ele>
        <time>2018-09-28T08:57:45Z</time>
      </trkpt>
      <trkpt lat="48.39833" lon="2.52503">
        <ele>119.01</ele>
        <time>2018-09-28T08:58:09Z</time>
      </trkpt>
      <trkpt lat="48.39837" lon="2.52487">
        <ele>118.07</ele>
        <time>2018-09-28T08:58:29Z</time>
      </trkpt>
      <trkpt lat="48.39842" lon="2.52473">
        <ele>118.2</ele>
        <time>2018-09-28T08:58:43Z</time>
      </trkpt>
      <trkpt lat="48.39849" lon="2.52459">
        <ele>118.11</ele>
        <time>2018-09-28T08:58:58Z</time>
      </trkpt>
      <trkpt lat="48.39848" lon="2.5246">
        <ele>120.45</ele>
        <time>2018-09-28T08:59:01Z</time>
      </trkpt>
      <trkpt lat="48.39847" lon="2.52451">
        <ele>120.45</ele>
        <time>2018-09-28T08:59:13Z</time>
      </trkpt>
      <trkpt lat="48.39852" lon="2.52432">
        <ele>121.21</ele>
        <time>2018-09-28T08:59:30Z</time>
      </trkpt>
      <trkpt lat="48.39856" lon="2.52415">
        <ele>121.21</ele>
        <time>2018-09-28T08:59:47Z</time>
      </trkpt>
      <trkpt lat="48.39857" lon="2.52405">
        <ele>121.22</ele>
        <time>2018-09-28T08:59:58Z</time>
      </trkpt>
      <trkpt lat="48.39862" lon="2.52388">
        <ele>121.22</ele>
        <time>2018-09-28T09:00:12Z</time>
      </trkpt>
      <trkpt lat="48.39868" lon="2.52376">
        <ele>118.86</ele>
        <time>2018-09-28T09:00:27Z</time>
      </trkpt>
      <trkpt lat="48.39873" lon="2.52366">
        <ele>118.93</ele>
        <time>2018-09-28T09:00:43Z</time>
      </trkpt>
      <trkpt lat="48.39876" lon="2.52361">
        <ele>118.92</ele>
        <time>2018-09-28T09:01:05Z</time>
      </trkpt>
      <trkpt lat="48.39877" lon="2.52358">
        <ele>118.95</ele>
        <time>2018-09-28T09:01:18Z</time>
      </trkpt>
      <trkpt lat="48.39884" lon="2.52358">
        <ele>118.95</ele>
        <time>2018-09-28T09:01:38Z</time>
      </trkpt>
      <trkpt lat="48.39886" lon="2.52356">
        <ele>118.95</ele>
        <time>2018-09-28T09:01:42Z</time>
      </trkpt>
      <trkpt lat="48.3989" lon="2.5235">
        <ele>121.31</ele>
        <time>2018-09-28T09:01:50Z</time>
      </trkpt>
      <trkpt lat="48.39893" lon="2.52344">
        <ele>121.28</ele>
        <time>2018-09-28T09:01:57Z</time>
      </trkpt>
      <trkpt lat="48.39897" lon="2.5234">
        <ele>121.28</ele>
        <time>2018-09-28T09:02:01Z</time>
      </trkpt>
      <trkpt lat="48.39898" lon="2.52328">
        <ele>121.29</ele>
        <time>2018-09-28T09:02:15Z</time>
      </trkpt>
      <trkpt lat="48.399" lon="2.52327">
        <ele>121.28</ele>
        <time>2018-09-28T09:02:17Z</time>
      </trkpt>
      <trkpt lat="48.39912" lon="2.52329">
        <ele>121.32</ele>
        <time>2018-09-28T09:02:30Z</time>
      </trkpt>
      <trkpt lat="48.3992" lon="2.52333">
        <ele>119.01</ele>
        <time>2018-09-28T09:02:43Z</time>
      </trkpt>
      <trkpt lat="48.39929" lon="2.52337">
        <ele>116.61</ele>
        <time>2018-09-28T09:03:04Z</time>
      </trkpt>
      <trkpt lat="48.3994" lon="2.52329">
        <ele>115.92</ele>
        <time>2018-09-28T09:03:23Z</time>
      </trkpt>
      <trkpt lat="48.39946" lon="2.52325">
        <ele>115.93</ele>
        <time>2018-09-28T09:03:31Z</time>
      </trkpt>
      <trkpt lat="48.39952" lon="2.52318">
        <ele>115.07</ele>
        <time>2018-09-28T09:03:46Z</time>
      </trkpt>
      <trkpt lat="48.39957" lon="2.52311">
        <ele>112.54</ele>
        <time>2018-09-28T09:04:04Z</time>
      </trkpt>
      <trkpt lat="48.39958" lon="2.52306">
        <ele>112.68</ele>
        <time>2018-09-28T09:04:21Z</time>
      </trkpt>
      <trkpt lat="48.3996" lon="2.52305">
        <ele>114.92</ele>
        <time>2018-09-28T09:04:24Z</time>
      </trkpt>
      <trkpt lat="48.39968" lon="2.52295">
        <ele>115.71</ele>
        <time>2018-09-28T09:04:43Z</time>
      </trkpt>
      <trkpt lat="48.39976" lon="2.52284">
        <ele>115.69</ele>
        <time>2018-09-28T09:05:00Z</time>
      </trkpt>
      <trkpt lat="48.39978" lon="2.52276">
        <ele>117.37</ele>
        <time>2018-09-28T09:05:18Z</time>
      </trkpt>
      <trkpt lat="48.39983" lon="2.52254">
        <ele>117.32</ele>
        <time>2018-09-28T09:05:39Z</time>
      </trkpt>
      <trkpt lat="48.39982" lon="2.52253">
        <ele>117.33</ele>
        <time>2018-09-28T09:05:43Z</time>
      </trkpt>
      <trkpt lat="48.39985" lon="2.52245">
        <ele>117.37</ele>
        <time>2018-09-28T09:05:56Z</time>
      </trkpt>
      <trkpt lat="48.39987" lon="2.52234">
        <ele>119.12</ele>
        <time>2018-09-28T09:06:12Z</time>
      </trkpt>
      <trkpt lat="48.39976" lon="2.5223">
        <ele>119.87</ele>
        <time>2018-09-28T09:06:30Z</time>
      </trkpt>
      <trkpt lat="48.39963" lon="2.52223">
        <ele>120.64</ele>
        <time>2018-09-28T09:06:48Z</time>
      </trkpt>
      <trkpt lat="48.39958" lon="2.52222">
        <ele>121.5</ele>
        <time>2018-09-28T09:07:05Z</time>
      </trkpt>
      <trkpt lat="48.39959" lon="2.52223">
        <ele>122.79</ele>
        <time>2018-09-28T09:07:23Z</time>
      </trkpt>
      <trkpt lat="48.3996" lon="2.52223">
        <ele>122.64</ele>
        <time>2018-09-28T09:07:49Z</time>
      </trkpt>
      <trkpt lat="48.39962" lon="2.52222">
        <ele>122.54</ele>
        <time>2018-09-28T09:08:25Z</time>
      </trkpt>
      <trkpt lat="48.39961" lon="2.52222">
        <ele>122.45</ele>
        <time>2018-09-28T09:08:50Z</time>
      </trkpt>
      <trkpt lat="48.3996" lon="2.52221">
        <ele>122.36</ele>
        <time>2018-09-28T09:09:13Z</time>
      </trkpt>
      <trkpt lat="48.39961" lon="2.52225">
        <ele>122.24</ele>
        <time>2018-09-28T09:09:40Z</time>
      </trkpt>
      <trkpt lat="48.39958" lon="2.5223">
        <ele>122.13</ele>
        <time>2018-09-28T09:10:05Z</time>
      </trkpt>
      <trkpt lat="48.39949" lon="2.52238">
        <ele>122.03</ele>
        <time>2018-09-28T09:10:24Z</time>
      </trkpt>
      <trkpt lat="48.39941" lon="2.52251">
        <ele>121.93</ele>
        <time>2018-09-28T09:10:47Z</time>
      </trkpt>
      <trkpt lat="48.39936" lon="2.52255">
        <ele>119.31</ele>
        <time>2018-09-28T09:11:02Z</time>
      </trkpt>
      <trkpt lat="48.39921" lon="2.52269">
        <ele>119.21</ele>
        <time>2018-09-28T09:11:23Z</time>
      </trkpt>
      <trkpt lat="48.39917" lon="2.52268">
        <ele>119.17</ele>
        <time>2018-09-28T09:11:28Z</time>
      </trkpt>
      <trkpt lat="48.39893" lon="2.52268">
        <ele>119.08</ele>
        <time>2018-09-28T09:11:50Z</time>
      </trkpt>
      <trkpt lat="48.3988" lon="2.52259">
        <ele>118.99</ele>
        <time>2018-09-28T09:12:08Z</time>
      </trkpt>
      <trkpt lat="48.39875" lon="2.52258">
        <ele>118.79</ele>
        <time>2018-09-28T09:12:30Z</time>
      </trkpt>
      <trkpt lat="48.39866" lon="2.52252">
        <ele>118.71</ele>
        <time>2018-09-28T09:12:50Z</time>
      </trkpt>
      <trkpt lat="48.39864" lon="2.52242">
        <ele>116.24</ele>
        <time>2018-09-28T09:13:07Z</time>
      </trkpt>
      <trkpt lat="48.39857" lon="2.52229">
        <ele>113.58</ele>
        <time>2018-09-28T09:13:26Z</time>
      </trkpt>
      <trkpt lat="48.39861" lon="2.5222">
        <ele>110.83</ele>
        <time>2018-09-28T09:13:45Z</time>
      </trkpt>
      <trkpt lat="48.39858" lon="2.52218">
        <ele>110.05</ele>
        <time>2018-09-28T09:14:06Z</time>
      </trkpt>
      <trkpt lat="48.39864" lon="2.52212">
        <ele>110.01</ele>
        <time>2018-09-28T09:14:29Z</time>
      </trkpt>
      <trkpt lat="48.3986" lon="2.52214">
        <ele>109.13</ele>
        <time>2018-09-28T09:14:55Z</time>
      </trkpt>
      <trkpt lat="48.39862" lon="2.52214">
        <ele>109.17</ele>
        <time>2018-09-28T09:15:26Z</time>
      </trkpt>
      <trkpt lat="48.39862" lon="2.52214">
        <ele>109.17</ele>
        <time>2018-09-28T09:15:48Z</time>
      </trkpt>
      <trkpt lat="48.3986" lon="2.52207">
        <ele>109.17</ele>
        <time>2018-09-28T09:16:05Z</time>
      </trkpt>
      <trkpt lat="48.39869" lon="2.52191">
        <ele>105.63</ele>
        <time>2018-09-28T09:16:24Z</time>
      </trkpt>
      <trkpt lat="48.39871" lon="2.52184">
        <ele>104.67</ele>
        <time>2018-09-28T09:16:30Z</time>
      </trkpt>
      <trkpt lat="48.39867" lon="2.52166">
        <ele>104.83</ele>
        <time>2018-09-28T09:16:47Z</time>
      </trkpt>
      <trkpt lat="48.39866" lon="2.52156">
        <ele>103.88</ele>
        <time>2018-09-28T09:17:05Z</time>
      </trkpt>
      <trkpt lat="48.3987" lon="2.52146">
        <ele>101.25</ele>
        <time>2018-09-28T09:17:24Z</time>
      </trkpt>
      <trkpt lat="48.39873" lon="2.52132">
        <ele>97.78</ele>
        <time>2018-09-28T09:17:40Z</time>
      </trkpt>
      <trkpt lat="48.3988" lon="2.52125">
        <ele>94.49</ele>
        <time>2018-09-28T09:17:56Z</time>
      </trkpt>
      <trkpt lat="48.39881" lon="2.52112">
        <ele>91.86</ele>
        <time>2018-09-28T09:18:12Z</time>
      </trkpt>
      <trkpt lat="48.39885" lon="2.52099">
        <ele>88.49</ele>
        <time>2018-09-28T09:18:28Z</time>
      </trkpt>
      <trkpt lat="48.39889" lon="2.52085">
        <ele>86.61</ele>
        <time>2018-09-28T09:18:46Z</time>
      </trkpt>
      <trkpt lat="48.39889" lon="2.52069">
        <ele>86.84</ele>
        <time>2018-09-28T09:19:03Z</time>
      </trkpt>
      <trkpt lat="48.39888" lon="2.52065">
        <ele>89.31</ele>
        <time>2018-09-28T09:19:07Z</time>
      </trkpt>
      <trkpt lat="48.39886" lon="2.52057">
        <ele>92.02</ele>
        <time>2018-09-28T09:19:29Z</time>
      </trkpt>
      <trkpt lat="48.39883" lon="2.52057">
        <ele>91.97</ele>
        <time>2018-09-28T09:19:48Z</time>
      </trkpt>
      <trkpt lat="48.3988" lon="2.5205">
        <ele>92.79</ele>
        <time>2018-09-28T09:20:04Z</time>
      </trkpt>
      <trkpt lat="48.3988" lon="2.52047">
        <ele>93.61</ele>
        <time>2018-09-28T09:20:31Z</time>
      </trkpt>
      <trkpt lat="48.39877" lon="2.52041">
        <ele>93.63</ele>
        <time>2018-09-28T09:20:53Z</time>
      </trkpt>
      <trkpt lat="48.39871" lon="2.52036">
        <ele>94.49</ele>
        <time>2018-09-28T09:21:11Z</time>
      </trkpt>
      <trkpt lat="48.3987" lon="2.52023">
        <ele>94.44</ele>
        <time>2018-09-28T09:21:27Z</time>
      </trkpt>
      <trkpt lat="48.39868" lon="2.52015">
        <ele>91.88</ele>
        <time>2018-09-28T09:21:36Z</time>
      </trkpt>
      <trkpt lat="48.39871" lon="2.52006">
        <ele>90.4</ele>
        <time>2018-09-28T09:21:52Z</time>
      </trkpt>
      <trkpt lat="48.39873" lon="2.51993">
        <ele>88.57</ele>
        <time>2018-09-28T09:22:09Z</time>
      </trkpt>
      <trkpt lat="48.39873" lon="2.51981">
        <ele>85.96</ele>
        <time>2018-09-28T09:22:27Z</time>
      </trkpt>
      <trkpt lat="48.39874" lon="2.51968">
        <ele>85.2</ele>
        <time>2018-09-28T09:22:43Z</time>
      </trkpt>
      <trkpt lat="48.39878" lon="2.51951">
        <ele>82.7</ele>
        <time>2018-09-28T09:22:58Z</time>
      </trkpt>
      <trkpt lat="48.39874" lon="2.51937">
        <ele>80.26</ele>
        <time>2018-09-28T09:23:14Z</time>
      </trkpt>
      <trkpt lat="48.39867" lon="2.51929">
        <ele>79.54</ele>
        <time>2018-09-28T09:23:31Z</time>
      </trkpt>
      <trkpt lat="48.39865" lon="2.51912">
        <ele>77.34</ele>
        <time>2018-09-28T09:23:51Z</time>
      </trkpt>
      <trkpt lat="48.39861" lon="2.51903">
        <ele>75.61</ele>
        <time>2018-09-28T09:24:05Z</time>
      </trkpt>
      <trkpt lat="48.39861" lon="2.5189">
        <ele>74.86</ele>
        <time>2018-09-28T09:24:18Z</time>
      </trkpt>
      <trkpt lat="48.39857" lon="2.51877">
        <ele>74.93</ele>
        <time>2018-09-28T09:24:36Z</time>
      </trkpt>
      <trkpt lat="48.39856" lon="2.5187">
        <ele>75.03</ele>
        <time>2018-09-28T09:24:57Z</time>
      </trkpt>
      <trkpt lat="48.3986" lon="2.51859">
        <ele>74.29</ele>
        <time>2018-09-28T09:25:21Z</time>
      </trkpt>
      <trkpt lat="48.3986" lon="2.51856">
        <ele>74.29</ele>
        <time>2018-09-28T09:25:23Z</time>
      </trkpt>
      <trkpt lat="48.39856" lon="2.51843">
        <ele>74.36</ele>
        <time>2018-09-28T09:25:38Z</time>
      </trkpt>
      <trkpt lat="48.39852" lon="2.51829">
        <ele>74.42</ele>
        <time>2018-09-28T09:25:50Z</time>
      </trkpt>
      <trkpt lat="48.3985" lon="2.51826">
        <ele>76.73</ele>
        <time>2018-09-28T09:25:52Z</time>
      </trkpt>
      <trkpt lat="48.39848" lon="2.51822">
        <ele>76.73</ele>
        <time>2018-09-28T09:25:55Z</time>
      </trkpt>
      <trkpt lat="48.39847" lon="2.51806">
        <ele>78.28</ele>
        <time>2018-09-28T09:26:07Z</time>
      </trkpt>
      <trkpt lat="48.39844" lon="2.51782">
        <ele>79.13</ele>
        <time>2018-09-28T09:26:25Z</time>
      </trkpt>
      <trkpt lat="48.39844" lon="2.51781">
        <ele>80.07</ele>
        <time>2018-09-28T09:26:26Z</time>
      </trkpt>
      <trkpt lat="48.39839" lon="2.51762">
        <ele>81.87</ele>
        <time>2018-09-28T09:26:44Z</time>
      </trkpt>
      <trkpt lat="48.39831" lon="2.51756">
        <ele>84.66</ele>
        <time>2018-09-28T09:27:01Z</time>
      </trkpt>
      <trkpt lat="48.39824" lon="2.51764">
        <ele>87.39</ele>
        <time>2018-09-28T09:27:19Z</time>
      </trkpt>
      <trkpt lat="48.39819" lon="2.5177">
        <ele>89.12</ele>
        <time>2018-09-28T09:27:35Z</time>
      </trkpt>
      <trkpt lat="48.39822" lon="2.51773">
        <ele>89.12</ele>
        <time>2018-09-28T09:28:03Z</time>
      </trkpt>
      <trkpt lat="48.3982" lon="2.51775">
        <ele>91.08</ele>
        <time>2018-09-28T09:28:16Z</time>
      </trkpt>
      <trkpt lat="48.39814" lon="2.51779">
        <ele>91.91</ele>
        <time>2018-09-28T09:28:22Z</time>
      </trkpt>
      <trkpt lat="48.39802" lon="2.51798">
        <ele>92.73</ele>
        <time>2018-09-28T09:28:38Z</time>
      </trkpt>
      <trkpt lat="48.39795" lon="2.51801">
        <ele>92.72</ele>
        <time>2018-09-28T09:28:43Z</time>
      </trkpt>
      <trkpt lat="48.39789" lon="2.51809">
        <ele>93.82</ele>
        <time>2018-09-28T09:28:55Z</time>
      </trkpt>
      <trkpt lat="48.39784" lon="2.51812">
        <ele>93.83</ele>
        <time>2018-09-28T09:29:17Z</time>
      </trkpt>
      <trkpt lat="48.39776" lon="2.51812">
        <ele>91.56</ele>
        <time>2018-09-28T09:29:35Z</time>
      </trkpt>
      <trkpt lat="48.39768" lon="2.51811">
        <ele>90.7</ele>
        <time>2018-09-28T09:29:49Z</time>
      </trkpt>
      <trkpt lat="48.39763" lon="2.51814">
        <ele>93.2</ele>
        <time>2018-09-28T09:30:00Z</time>
      </trkpt>
      <trkpt lat="48.39758" lon="2.51818">
        <ele>95.77</ele>
        <time>2018-09-28T09:30:19Z</time>
      </trkpt>
      <trkpt lat="48.39748" lon="2.51814">
        <ele>99.15</ele>
        <time>2018-09-28T09:30:37Z</time>
      </trkpt>
      <trkpt lat="48.3974" lon="2.51806">
        <ele>100.78</ele>
        <time>2018-09-28T09:30:55Z</time>
      </trkpt>
      <trkpt lat="48.39734" lon="2.51805">
        <ele>102.37</ele>
        <time>2018-09-28T09:31:11Z</time>
      </trkpt>
      <trkpt lat="48.39731" lon="2.51789">
        <ele>103.12</ele>
        <time>2018-09-28T09:31:30Z</time>
      </trkpt>
      <trkpt lat="48.3972" lon="2.51779">
        <ele>103.23</ele>
        <time>2018-09-28T09:31:49Z</time>
      </trkpt>
      <trkpt lat="48.39715" lon="2.51763">
        <ele>103.15</ele>
        <time>2018-09-28T09:32:06Z</time>
      </trkpt>
      <trkpt lat="48.39714" lon="2.51758">
        <ele>103.19</ele>
        <time>2018-09-28T09:32:16Z</time>
      </trkpt>
      <trkpt lat="48.3971" lon="2.51741">
        <ele>103.22</ele>
        <time>2018-09-28T09:32:33Z</time>
      </trkpt>
      <trkpt lat="48.39707" lon="2.51729">
        <ele>100.92</ele>
        <time>2018-09-28T09:32:45Z</time>
      </trkpt>
      <trkpt lat="48.39701" lon="2.51715">
        <ele>100.94</ele>
        <time>2018-09-28T09:32:59Z</time>
      </trkpt>
      <trkpt lat="48.39697" lon="2.51698">
        <ele>101.06</ele>
        <time>2018-09-28T09:33:16Z</time>
      </trkpt>
      <trkpt lat="48.39696" lon="2.51695">
        <ele>103.36</ele>
        <time>2018-09-28T09:33:20Z</time>
      </trkpt>
      <trkpt lat="48.39686" lon="2.51691">
        <ele>107.17</ele>
        <time>2018-09-28T09:33:37Z</time>
      </trkpt>
      <trkpt lat="48.39672" lon="2.51687">
        <ele>109.73</ele>
        <time>2018-09-28T09:33:56Z</time>
      </trkpt>
      <trkpt lat="48.3966" lon="2.51677">
        <ele>109.72</ele>
        <time>2018-09-28T09:34:14Z</time>
      </trkpt>
      <trkpt lat="48.39655" lon="2.51671">
        <ele>109.76</ele>
        <time>2018-09-28T09:34:33Z</time>
      </trkpt>
      <trkpt lat="48.39654" lon="2.51661">
        <ele>109.76</ele>
        <time>2018-09-28T09:34:50Z</time>
      </trkpt>
      <trkpt lat="48.39653" lon="2.51662">
        <ele>109.8</ele>
        <time>2018-09-28T09:35:16Z</time>
      </trkpt>
      <trkpt lat="48.39653" lon="2.51662">
        <ele>109.8</ele>
        <time>2018-09-28T09:35:41Z</time>
      </trkpt>
      <trkpt lat="48.39651" lon="2.51661">
        <ele>109.83</ele>
        <time>2018-09-28T09:36:06Z</time>
      </trkpt>
      <trkpt lat="48.39651" lon="2.51665">
        <ele>109.88</ele>
        <time>2018-09-28T09:36:34Z</time>
      </trkpt>
      <trkpt lat="48.39647" lon="2.51672">
        <ele>109.86</ele>
        <time>2018-09-28T09:36:43Z</time>
      </trkpt>
      <trkpt lat="48.39645" lon="2.51673">
        <ele>109.87</ele>
        <time>2018-09-28T09:36:46Z</time>
      </trkpt>
      <trkpt lat="48.39631" lon="2.5168">
        <ele>111.51</ele>
        <time>2018-09-28T09:37:02Z</time>
      </trkpt>
      <trkpt lat="48.39621" lon="2.51684">
        <ele>111.46</ele>
        <time>2018-09-28T09:37:20Z</time>
      </trkpt>
      <trkpt lat="48.39615" lon="2.5168">
        <ele>111.45</ele>
        <time>2018-09-28T09:37:29Z</time>
      </trkpt>
      <trkpt lat="48.39611" lon="2.51685">
        <ele>111.45</ele>
        <time>2018-09-28T09:37:40Z</time>
      </trkpt>
      <trkpt lat="48.39609" lon="2.51704">
        <ele>113.26</ele>
        <time>2018-09-28T09:37:59Z</time>
      </trkpt>
      <trkpt lat="48.39608" lon="2.51708">
        <ele>113.27</ele>
        <time>2018-09-28T09:38:02Z</time>
      </trkpt>
      <trkpt lat="48.39607" lon="2.51716">
        <ele>113.27</ele>
        <time>2018-09-28T09:38:07Z</time>
      </trkpt>
      <trkpt lat="48.39604" lon="2.51735">
        <ele>114.08</ele>
        <time>2018-09-28T09:38:19Z</time>
      </trkpt>
      <trkpt lat="48.39601" lon="2.51754">
        <ele>114.04</ele>
        <time>2018-09-28T09:38:32Z</time>
      </trkpt>
      <trkpt lat="48.39599" lon="2.51761">
        <ele>114.1</ele>
        <time>2018-09-28T09:38:48Z</time>
      </trkpt>
      <trkpt lat="48.396" lon="2.51777">
        <ele>114.11</ele>
        <time>2018-09-28T09:39:06Z</time>
      </trkpt>
      <trkpt lat="48.39599" lon="2.5179">
        <ele>114.04</ele>
        <time>2018-09-28T09:39:24Z</time>
      </trkpt>
      <trkpt lat="48.39599" lon="2.51791">
        <ele>111.75</ele>
        <time>2018-09-28T09:39:27Z</time>
      </trkpt>
      <trkpt lat="48.39585" lon="2.51792">
        <ele>108.04</ele>
        <time>2018-09-28T09:39:43Z</time>
      </trkpt>
      <trkpt lat="48.39579" lon="2.51798">
        <ele>106.47</ele>
        <time>2018-09-28T09:40:03Z</time>
      </trkpt>
      <trkpt lat="48.39573" lon="2.51795">
        <ele>105.61</ele>
        <time>2018-09-28T09:40:19Z</time>
      </trkpt>
      <trkpt lat="48.39579" lon="2.51796">
        <ele>105.67</ele>
        <time>2018-09-28T09:40:37Z</time>
      </trkpt>
      <trkpt lat="48.39575" lon="2.51799">
        <ele>104.77</ele>
        <time>2018-09-28T09:40:59Z</time>
      </trkpt>
      <trkpt lat="48.39568" lon="2.51801">
        <ele>103.97</ele>
        <time>2018-09-28T09:41:16Z</time>
      </trkpt>
      <trkpt lat="48.3956" lon="2.51798">
        <ele>101.52</ele>
        <time>2018-09-28T09:41:29Z</time>
      </trkpt>
      <trkpt lat="48.39555" lon="2.51808">
        <ele>101.55</ele>
        <time>2018-09-28T09:41:41Z</time>
      </trkpt>
      <trkpt lat="48.39553" lon="2.51816">
        <ele>104.21</ele>
        <time>2018-09-28T09:41:51Z</time>
      </trkpt>
      <trkpt lat="48.39551" lon="2.51836">
        <ele>105.8</ele>
        <time>2018-09-28T09:42:07Z</time>
      </trkpt>
      <trkpt lat="48.39548" lon="2.51851">
        <ele>106.84</ele>
        <time>2018-09-28T09:42:24Z</time>
      </trkpt>
      <trkpt lat="48.39543" lon="2.51863">
        <ele>106.82</ele>
        <time>2018-09-28T09:42:35Z</time>
      </trkpt>
      <trkpt lat="48.39541" lon="2.5188">
        <ele>106.85</ele>
        <time>2018-09-28T09:42:48Z</time>
      </trkpt>
      <trkpt lat="48.3954" lon="2.51892">
        <ele>107.71</ele>
        <time>2018-09-28T09:42:58Z</time>
      </trkpt>
      <trkpt lat="48.3954" lon="2.51916">
        <ele>107.73</ele>
        <time>2018-09-28T09:43:12Z</time>
      </trkpt>
      <trkpt lat="48.39541" lon="2.51928">
        <ele>110.77</ele>
        <time>2018-09-28T09:43:22Z</time>
      </trkpt>
      <trkpt lat="48.39544" lon="2.51938">
        <ele>111.45</ele>
        <time>2018-09-28T09:43:34Z</time>
      </trkpt>
      <trkpt lat="48.39545" lon="2.51947">
        <ele>112.26</ele>
        <time>2018-09-28T09:43:41Z</time>
      </trkpt>
      <trkpt lat="48.39546" lon="2.51953">
        <ele>114.11</ele>
        <time>2018-09-28T09:43:53Z</time>
      </trkpt>
      <trkpt lat="48.39539" lon="2.51945">
        <ele>114.06</ele>
        <time>2018-09-28T09:44:06Z</time>
      </trkpt>
      <trkpt lat="48.3953" lon="2.51942">
        <ele>114.05</ele>
        <time>2018-09-28T09:44:20Z</time>
      </trkpt>
      <trkpt lat="48.39519" lon="2.51946">
        <ele>111.64</ele>
        <time>2018-09-28T09:44:42Z</time>
      </trkpt>
      <trkpt lat="48.39519" lon="2.51947">
        <ele>111.66</ele>
        <time>2018-09-28T09:44:43Z</time>
      </trkpt>
      <trkpt lat="48.39516" lon="2.51956">
        <ele>109.16</ele>
        <time>2018-09-28T09:45:01Z</time>
      </trkpt>
      <trkpt lat="48.39511" lon="2.51962">
        <ele>106.81</ele>
        <time>2018-09-28T09:45:23Z</time>
      </trkpt>
      <trkpt lat="48.39504" lon="2.51962">
        <ele>104.1</ele>
        <time>2018-09-28T09:45:43Z</time>
      </trkpt>
      <trkpt lat="48.39495" lon="2.51973">
        <ele>104.27</ele>
        <time>2018-09-28T09:45:58Z</time>
      </trkpt>
      <trkpt lat="48.395" lon="2.5198">
        <ele>104.34</ele>
        <time>2018-09-28T09:46:15Z</time>
      </trkpt>
      <trkpt lat="48.39503" lon="2.51985">
        <ele>106.75</ele>
        <time>2018-09-28T09:46:30Z</time>
      </trkpt>
      <trkpt lat="48.39502" lon="2.51994">
        <ele>108.51</ele>
        <time>2018-09-28T09:46:42Z</time>
      </trkpt>
      <trkpt lat="48.39499" lon="2.52012">
        <ele>110.17</ele>
        <time>2018-09-28T09:46:58Z</time>
      </trkpt>
      <trkpt lat="48.39501" lon="2.52028">
        <ele>112.69</ele>
        <time>2018-09-28T09:47:17Z</time>
      </trkpt>
      <trkpt lat="48.39502" lon="2.52045">
        <ele>112.56</ele>
        <time>2018-09-28T09:47:33Z</time>
      </trkpt>
      <trkpt lat="48.39501" lon="2.52064">
        <ele>112.53</ele>
        <time>2018-09-28T09:47:50Z</time>
      </trkpt>
      <trkpt lat="48.39503" lon="2.52071">
        <ele>112.55</ele>
        <time>2018-09-28T09:47:55Z</time>
      </trkpt>
      <trkpt lat="48.39503" lon="2.52079">
        <ele>112.59</ele>
        <time>2018-09-28T09:48:02Z</time>
      </trkpt>
      <trkpt lat="48.39499" lon="2.52097">
        <ele>112.55</ele>
        <time>2018-09-28T09:48:14Z</time>
      </trkpt>
      <trkpt lat="48.39494" lon="2.5211">
        <ele>112.52</ele>
        <time>2018-09-28T09:48:27Z</time>
      </trkpt>
      <trkpt lat="48.39488" lon="2.52115">
        <ele>110.17</ele>
        <time>2018-09-28T09:48:34Z</time>
      </trkpt>
      <trkpt lat="48.39485" lon="2.52119">
        <ele>109.53</ele>
        <time>2018-09-28T09:48:39Z</time>
      </trkpt>
      <trkpt lat="48.39478" lon="2.52135">
        <ele>109.58</ele>
        <time>2018-09-28T09:48:53Z</time>
      </trkpt>
      <trkpt lat="48.3947" lon="2.52146">
        <ele>109.62</ele>
        <time>2018-09-28T09:49:04Z</time>
      </trkpt>
      <trkpt lat="48.39469" lon="2.52148">
        <ele>109.63</ele>
        <time>2018-09-28T09:49:06Z</time>
      </trkpt>
      <trkpt lat="48.39467" lon="2.52152">
        <ele>109.64</ele>
        <time>2018-09-28T09:49:09Z</time>
      </trkpt>
      <trkpt lat="48.39463" lon="2.52165">
        <ele>111.92</ele>
        <time>2018-09-28T09:49:17Z</time>
      </trkpt>
      <trkpt lat="48.39461" lon="2.52179">
        <ele>112.71</ele>
        <time>2018-09-28T09:49:26Z</time>
      </trkpt>
      <trkpt lat="48.39453" lon="2.52196">
        <ele>112.79</ele>
        <time>2018-09-28T09:49:42Z</time>
      </trkpt>
      <trkpt lat="48.39444" lon="2.52208">
        <ele>112.84</ele>
        <time>2018-09-28T09:49:52Z</time>
      </trkpt>
      <trkpt lat="48.39441" lon="2.52222">
        <ele>112.93</ele>
        <time>2018-09-28T09:50:07Z</time>
      </trkpt>
      <trkpt lat="48.3944" lon="2.52221">
        <ele>110.68</ele>
        <time>2018-09-28T09:50:10Z</time>
      </trkpt>
      <trkpt lat="48.39438" lon="2.52225">
        <ele>110.82</ele>
        <time>2018-09-28T09:50:28Z</time>
      </trkpt>
      <trkpt lat="48.39431" lon="2.52229">
        <ele>109.98</ele>
        <time>2018-09-28T09:50:43Z</time>
      </trkpt>
      <trkpt lat="48.39421" lon="2.52237">
        <ele>109.21</ele>
        <time>2018-09-28T09:51:01Z</time>
      </trkpt>
      <trkpt lat="48.39415" lon="2.52232">
        <ele>109.27</ele>
        <time>2018-09-28T09:51:18Z</time>
      </trkpt>
      <trkpt lat="48.39397" lon="2.52226">
        <ele>109.34</ele>
        <time>2018-09-28T09:51:35Z</time>
      </trkpt>
      <trkpt lat="48.3939" lon="2.52226">
        <ele>111.65</ele>
        <time>2018-09-28T09:51:42Z</time>
      </trkpt>
      <trkpt lat="48.39384" lon="2.52233">
        <ele>115.4</ele>
        <time>2018-09-28T09:51:57Z</time>
      </trkpt>
      <trkpt lat="48.39382" lon="2.52245">
        <ele>115.34</ele>
        <time>2018-09-28T09:52:15Z</time>
      </trkpt>
      <trkpt lat="48.3938" lon="2.5225">
        <ele>115.31</ele>
        <time>2018-09-28T09:52:19Z</time>
      </trkpt>
      <trkpt lat="48.39374" lon="2.52264">
        <ele>116.03</ele>
        <time>2018-09-28T09:52:32Z</time>
      </trkpt>
      <trkpt lat="48.39374" lon="2.52268">
        <ele>116.01</ele>
        <time>2018-09-28T09:52:35Z</time>
      </trkpt>
      <trkpt lat="48.39375" lon="2.52271">
        <ele>116.01</ele>
        <time>2018-09-28T09:52:37Z</time>
      </trkpt>
      <trkpt lat="48.39372" lon="2.52286">
        <ele>115.99</ele>
        <time>2018-09-28T09:52:49Z</time>
      </trkpt>
      <trkpt lat="48.39371" lon="2.523">
        <ele>115.97</ele>
        <time>2018-09-28T09:53:01Z</time>
      </trkpt>
      <trkpt lat="48.39368" lon="2.52307">
        <ele>113.58</ele>
        <time>2018-09-28T09:53:06Z</time>
      </trkpt>
      <trkpt lat="48.39368" lon="2.52323">
        <ele>112.77</ele>
        <time>2018-09-28T09:53:19Z</time>
      </trkpt>
      <trkpt lat="48.39366" lon="2.52332">
        <ele>111.81</ele>
        <time>2018-09-28T09:53:24Z</time>
      </trkpt>
      <trkpt lat="48.39364" lon="2.5234">
        <ele>111.85</ele>
        <time>2018-09-28T09:53:29Z</time>
      </trkpt>
      <trkpt lat="48.39368" lon="2.52365">
        <ele>107.71</ele>
        <time>2018-09-28T09:53:47Z</time>
      </trkpt>
      <trkpt lat="48.39365" lon="2.52373">
        <ele>106.93</ele>
        <time>2018-09-28T09:53:54Z</time>
      </trkpt>
      <trkpt lat="48.39366" lon="2.52403">
        <ele>105.55</ele>
        <time>2018-09-28T09:54:09Z</time>
      </trkpt>
      <trkpt lat="48.39371" lon="2.5243">
        <ele>104.82</ele>
        <time>2018-09-28T09:54:26Z</time>
      </trkpt>
      <trkpt lat="48.3937" lon="2.52436">
        <ele>104.85</ele>
        <time>2018-09-28T09:54:29Z</time>
      </trkpt>
      <trkpt lat="48.39375" lon="2.52453">
        <ele>104.96</ele>
        <time>2018-09-28T09:54:41Z</time>
      </trkpt>
      <trkpt lat="48.39378" lon="2.52461">
        <ele>104.95</ele>
        <time>2018-09-28T09:54:46Z</time>
      </trkpt>
      <trkpt lat="48.39386" lon="2.52463">
        <ele>105.02</ele>
        <time>2018-09-28T09:55:02Z</time>
      </trkpt>
      <trkpt lat="48.39388" lon="2.52463">
        <ele>107.3</ele>
        <time>2018-09-28T09:55:05Z</time>
      </trkpt>
      <trkpt lat="48.3939" lon="2.52472">
        <ele>109.07</ele>
        <time>2018-09-28T09:55:19Z</time>
      </trkpt>
      <trkpt lat="48.3939" lon="2.52478">
        <ele>109.03</ele>
        <time>2018-09-28T09:55:24Z</time>
      </trkpt>
      <trkpt lat="48.3939" lon="2.52483">
        <ele>109.82</ele>
        <time>2018-09-28T09:55:29Z</time>
      </trkpt>
      <trkpt lat="48.39395" lon="2.52489">
        <ele>112.72</ele>
        <time>2018-09-28T09:55:48Z</time>
      </trkpt>
      <trkpt lat="48.39398" lon="2.52508">
        <ele>113.59</ele>
        <time>2018-09-28T09:56:03Z</time>
      </trkpt>
      <trkpt lat="48.39404" lon="2.52523">
        <ele>115.19</ele>
        <time>2018-09-28T09:56:19Z</time>
      </trkpt>
      <trkpt lat="48.39403" lon="2.52528">
        <ele>115.18</ele>
        <time>2018-09-28T09:56:23Z</time>
      </trkpt>
      <trkpt lat="48.39402" lon="2.5254">
        <ele>115.14</ele>
        <time>2018-09-28T09:56:30Z</time>
      </trkpt>
      <trkpt lat="48.39403" lon="2.52548">
        <ele>115.12</ele>
        <time>2018-09-28T09:56:35Z</time>
      </trkpt>
      <trkpt lat="48.39401" lon="2.52556">
        <ele>115.13</ele>
        <time>2018-09-28T09:56:42Z</time>
      </trkpt>
      <trkpt lat="48.394" lon="2.52568">
        <ele>115.21</ele>
        <time>2018-09-28T09:56:50Z</time>
      </trkpt>
      <trkpt lat="48.39399" lon="2.52582">
        <ele>116.01</ele>
        <time>2018-09-28T09:56:59Z</time>
      </trkpt>
      <trkpt lat="48.39395" lon="2.526">
        <ele>116.02</ele>
        <time>2018-09-28T09:57:12Z</time>
      </trkpt>
      <trkpt lat="48.39394" lon="2.52604">
        <ele>116.02</ele>
        <time>2018-09-28T09:57:14Z</time>
      </trkpt>
      <trkpt lat="48.39393" lon="2.52607">
        <ele>116.03</ele>
        <time>2018-09-28T09:57:17Z</time>
      </trkpt>
      <trkpt lat="48.39391" lon="2.52626">
        <ele>116.1</ele>
        <time>2018-09-28T09:57:30Z</time>
      </trkpt>
      <trkpt lat="48.39387" lon="2.52637">
        <ele>113.85</ele>
        <time>2018-09-28T09:57:41Z</time>
      </trkpt>
      <trkpt lat="48.39387" lon="2.52638">
        <ele>113.84</ele>
        <time>2018-09-28T09:57:42Z</time>
      </trkpt>
      <trkpt lat="48.39383" lon="2.52663">
        <ele>111.53</ele>
        <time>2018-09-28T09:57:58Z</time>
      </trkpt>
      <trkpt lat="48.39384" lon="2.52679">
        <ele>108.17</ele>
        <time>2018-09-28T09:58:12Z</time>
      </trkpt>
      <trkpt lat="48.39382" lon="2.52686">
        <ele>107.27</ele>
        <time>2018-09-28T09:58:17Z</time>
      </trkpt>
      <trkpt lat="48.39382" lon="2.527">
        <ele>106.7</ele>
        <time>2018-09-28T09:58:36Z</time>
      </trkpt>
      <trkpt lat="48.39382" lon="2.52715">
        <ele>106.93</ele>
        <time>2018-09-28T09:58:52Z</time>
      </trkpt>
      <trkpt lat="48.39383" lon="2.52725">
        <ele>109.56</ele>
        <time>2018-09-28T09:59:12Z</time>
      </trkpt>
      <trkpt lat="48.39382" lon="2.52725">
        <ele>109.58</ele>
        <time>2018-09-28T09:59:13Z</time>
      </trkpt>
      <trkpt lat="48.3937" lon="2.52732">
        <ele>111.25</ele>
        <time>2018-09-28T09:59:33Z</time>
      </trkpt>
      <trkpt lat="48.39358" lon="2.52746">
        <ele>111.35</ele>
        <time>2018-09-28T09:59:45Z</time>
      </trkpt>
      <trkpt lat="48.39346" lon="2.52766">
        <ele>111.49</ele>
        <time>2018-09-28T10:00:03Z</time>
      </trkpt>
      <trkpt lat="48.39343" lon="2.5277">
        <ele>109.1</ele>
        <time>2018-09-28T10:00:08Z</time>
      </trkpt>
      <trkpt lat="48.39331" lon="2.52775">
        <ele>107.6</ele>
        <time>2018-09-28T10:00:23Z</time>
      </trkpt>
      <trkpt lat="48.39325" lon="2.5278">
        <ele>110.1</ele>
        <time>2018-09-28T10:00:32Z</time>
      </trkpt>
      <trkpt lat="48.39317" lon="2.52785">
        <ele>113.35</ele>
        <time>2018-09-28T10:00:46Z</time>
      </trkpt>
      <trkpt lat="48.39306" lon="2.52793">
        <ele>115.13</ele>
        <time>2018-09-28T10:00:59Z</time>
      </trkpt>
      <trkpt lat="48.39302" lon="2.5279">
        <ele>117.66</ele>
        <time>2018-09-28T10:01:15Z</time>
      </trkpt>
      <trkpt lat="48.39294" lon="2.52788">
        <ele>119.22</ele>
        <time>2018-09-28T10:01:23Z</time>
      </trkpt>
      <trkpt lat="48.39286" lon="2.52786">
        <ele>119.2</ele>
        <time>2018-09-28T10:01:30Z</time>
      </trkpt>
      <trkpt lat="48.39282" lon="2.52783">
        <ele>119.2</ele>
        <time>2018-09-28T10:01:34Z</time>
      </trkpt>
      <trkpt lat="48.39273" lon="2.52781">
        <ele>119.17</ele>
        <time>2018-09-28T10:01:42Z</time>
      </trkpt>
      <trkpt lat="48.3927" lon="2.52776">
        <ele>119.17</ele>
        <time>2018-09-28T10:01:47Z</time>
      </trkpt>
      <trkpt lat="48.3927" lon="2.52773">
        <ele>119.16</ele>
        <time>2018-09-28T10:01:49Z</time>
      </trkpt>
      <trkpt lat="48.39266" lon="2.52769">
        <ele>119.16</ele>
        <time>2018-09-28T10:01:53Z</time>
      </trkpt>
      <trkpt lat="48.39254" lon="2.52762">
        <ele>119.12</ele>
        <time>2018-09-28T10:02:07Z</time>
      </trkpt>
      <trkpt lat="48.39248" lon="2.52758">
        <ele>116.81</ele>
        <time>2018-09-28T10:02:17Z</time>
      </trkpt>
      <trkpt lat="48.39241" lon="2.52754">
        <ele>113.46</ele>
        <time>2018-09-28T10:02:36Z</time>
      </trkpt>
      <trkpt lat="48.39227" lon="2.52746">
        <ele>111.14</ele>
        <time>2018-09-28T10:02:55Z</time>
      </trkpt>
      <trkpt lat="48.39212" lon="2.52746">
        <ele>107.63</ele>
        <time>2018-09-28T10:03:14Z</time>
      </trkpt>
      <trkpt lat="48.39201" lon="2.5274">
        <ele>105.9</ele>
        <time>2018-09-28T10:03:29Z</time>
      </trkpt>
      <trkpt lat="48.39193" lon="2.52738">
        <ele>105.48</ele>
        <time>2018-09-28T10:03:48Z</time>
      </trkpt>
      <trkpt lat="48.39187" lon="2.52731">
        <ele>102.02</ele>
        <time>2018-09-28T10:04:07Z</time>
      </trkpt>
      <trkpt lat="48.39172" lon="2.52724">
        <ele>102.34</ele>
        <time>2018-09-28T10:04:23Z</time>
      </trkpt>
      <trkpt lat="48.39155" lon="2.52731">
        <ele>104.85</ele>
        <time>2018-09-28T10:04:43Z</time>
      </trkpt>
      <trkpt lat="48.39154" lon="2.52732">
        <ele>104.85</ele>
        <time>2018-09-28T10:04:44Z</time>
      </trkpt>
      <trkpt lat="48.39149" lon="2.52746">
        <ele>107.34</ele>
        <time>2018-09-28T10:05:06Z</time>
      </trkpt>
      <trkpt lat="48.39139" lon="2.5276">
        <ele>109.77</ele>
        <time>2018-09-28T10:05:26Z</time>
      </trkpt>
      <trkpt lat="48.39131" lon="2.52773">
        <ele>111.82</ele>
        <time>2018-09-28T10:05:39Z</time>
      </trkpt>
      <trkpt lat="48.39133" lon="2.52791">
        <ele>113.51</ele>
        <time>2018-09-28T10:05:55Z</time>
      </trkpt>
      <trkpt lat="48.39132" lon="2.52803">
        <ele>115.04</ele>
        <time>2018-09-28T10:06:09Z</time>
      </trkpt>
      <trkpt lat="48.39133" lon="2.52816">
        <ele>116.95</ele>
        <time>2018-09-28T10:06:25Z</time>
      </trkpt>
      <trkpt lat="48.3913" lon="2.52832">
        <ele>118.62</ele>
        <time>2018-09-28T10:06:40Z</time>
      </trkpt>
      <trkpt lat="48.39125" lon="2.52846">
        <ele>120.22</ele>
        <time>2018-09-28T10:06:52Z</time>
      </trkpt>
      <trkpt lat="48.3912" lon="2.52863">
        <ele>120.97</ele>
        <time>2018-09-28T10:07:06Z</time>
      </trkpt>
      <trkpt lat="48.39112" lon="2.52865">
        <ele>122.49</ele>
        <time>2018-09-28T10:07:21Z</time>
      </trkpt>
      <trkpt lat="48.39104" lon="2.52862">
        <ele>124.21</ele>
        <time>2018-09-28T10:07:37Z</time>
      </trkpt>
      <trkpt lat="48.39095" lon="2.52861">
        <ele>124.09</ele>
        <time>2018-09-28T10:07:52Z</time>
      </trkpt>
      <trkpt lat="48.39089" lon="2.52871">
        <ele>123.99</ele>
        <time>2018-09-28T10:08:09Z</time>
      </trkpt>
      <trkpt lat="48.39088" lon="2.5289">
        <ele>123.93</ele>
        <time>2018-09-28T10:08:24Z</time>
      </trkpt>
      <trkpt lat="48.3909" lon="2.52906">
        <ele>123.92</ele>
        <time>2018-09-28T10:08:42Z</time>
      </trkpt>
      <trkpt lat="48.39091" lon="2.52921">
        <ele>123.87</ele>
        <time>2018-09-28T10:09:01Z</time>
      </trkpt>
      <trkpt lat="48.39085" lon="2.52932">
        <ele>123.81</ele>
        <time>2018-09-28T10:09:18Z</time>
      </trkpt>
      <trkpt lat="48.39083" lon="2.52937">
        <ele>121.08</ele>
        <time>2018-09-28T10:09:24Z</time>
      </trkpt>
      <trkpt lat="48.39078" lon="2.52951">
        <ele>121.07</ele>
        <time>2018-09-28T10:09:40Z</time>
      </trkpt>
      <trkpt lat="48.39079" lon="2.52966">
        <ele>121.12</ele>
        <time>2018-09-28T10:09:55Z</time>
      </trkpt>
      <trkpt lat="48.3908" lon="2.52969">
        <ele>121.13</ele>
        <time>2018-09-28T10:09:58Z</time>
      </trkpt>
      <trkpt lat="48.39076" lon="2.52989">
        <ele>121.13</ele>
        <time>2018-09-28T10:10:15Z</time>
      </trkpt>
      <trkpt lat="48.39075" lon="2.52991">
        <ele>121.13</ele>
        <time>2018-09-28T10:10:17Z</time>
      </trkpt>
      <trkpt lat="48.3907" lon="2.53006">
        <ele>121.11</ele>
        <time>2018-09-28T10:10:28Z</time>
      </trkpt>
      <trkpt lat="48.39069" lon="2.53023">
        <ele>120.3</ele>
        <time>2018-09-28T10:10:39Z</time>
      </trkpt>
      <trkpt lat="48.39067" lon="2.53035">
        <ele>120.31</ele>
        <time>2018-09-28T10:10:46Z</time>
      </trkpt>
      <trkpt lat="48.39067" lon="2.53054">
        <ele>120.4</ele>
        <time>2018-09-28T10:11:03Z</time>
      </trkpt>
      <trkpt lat="48.39065" lon="2.53064">
        <ele>120.39</ele>
        <time>2018-09-28T10:11:14Z</time>
      </trkpt>
      <trkpt lat="48.39062" lon="2.53081">
        <ele>120.4</ele>
        <time>2018-09-28T10:11:31Z</time>
      </trkpt>
      <trkpt lat="48.39062" lon="2.53099">
        <ele>120.42</ele>
        <time>2018-09-28T10:11:46Z</time>
      </trkpt>
      <trkpt lat="48.39061" lon="2.53118">
        <ele>120.42</ele>
        <time>2018-09-28T10:12:01Z</time>
      </trkpt>
      <trkpt lat="48.39059" lon="2.53122">
        <ele>120.41</ele>
        <time>2018-09-28T10:12:04Z</time>
      </trkpt>
      <trkpt lat="48.39061" lon="2.5314">
        <ele>120.43</ele>
        <time>2018-09-28T10:12:16Z</time>
      </trkpt>
      <trkpt lat="48.39055" lon="2.53149">
        <ele>120.45</ele>
        <time>2018-09-28T10:12:24Z</time>
      </trkpt>
      <trkpt lat="48.39054" lon="2.53157">
        <ele>120.47</ele>
        <time>2018-09-28T10:12:30Z</time>
      </trkpt>
      <trkpt lat="48.3905" lon="2.53164">
        <ele>120.46</ele>
        <time>2018-09-28T10:12:37Z</time>
      </trkpt>
      <trkpt lat="48.39048" lon="2.53167">
        <ele>120.47</ele>
        <time>2018-09-28T10:12:40Z</time>
      </trkpt>
      <trkpt lat="48.39047" lon="2.53173">
        <ele>120.48</ele>
        <time>2018-09-28T10:12:45Z</time>
      </trkpt>
      <trkpt lat="48.39046" lon="2.53196">
        <ele>120.58</ele>
        <time>2018-09-28T10:13:00Z</time>
      </trkpt>
      <trkpt lat="48.39046" lon="2.5321">
        <ele>119.55</ele>
        <time>2018-09-28T10:13:13Z</time>
      </trkpt>
      <trkpt lat="48.39046" lon="2.53228">
        <ele>116.94</ele>
        <time>2018-09-28T10:13:32Z</time>
      </trkpt>
      <trkpt lat="48.39048" lon="2.53236">
        <ele>115.37</ele>
        <time>2018-09-28T10:13:51Z</time>
      </trkpt>
      <trkpt lat="48.39049" lon="2.53245">
        <ele>112.85</ele>
        <time>2018-09-28T10:14:06Z</time>
      </trkpt>
      <trkpt lat="48.39044" lon="2.53258">
        <ele>111.25</ele>
        <time>2018-09-28T10:14:22Z</time>
      </trkpt>
      <trkpt lat="48.39052" lon="2.53277">
        <ele>111.52</ele>
        <time>2018-09-28T10:14:41Z</time>
      </trkpt>
      <trkpt lat="48.39053" lon="2.53278">
        <ele>114.01</ele>
        <time>2018-09-28T10:14:43Z</time>
      </trkpt>
      <trkpt lat="48.39062" lon="2.53296">
        <ele>116.75</ele>
        <time>2018-09-28T10:15:01Z</time>
      </trkpt>
      <trkpt lat="48.39067" lon="2.53312">
        <ele>117.77</ele>
        <time>2018-09-28T10:15:18Z</time>
      </trkpt>
      <trkpt lat="48.39065" lon="2.5332">
        <ele>121.14</ele>
        <time>2018-09-28T10:15:32Z</time>
      </trkpt>
      <trkpt lat="48.39054" lon="2.53322">
        <ele>121.79</ele>
        <time>2018-09-28T10:15:50Z</time>
      </trkpt>
      <trkpt lat="48.3904" lon="2.53334">
        <ele>123.42</ele>
        <time>2018-09-28T10:16:08Z</time>
      </trkpt>
      <trkpt lat="48.39033" lon="2.53343">
        <ele>124.16</ele>
        <time>2018-09-28T10:16:18Z</time>
      </trkpt>
      <trkpt lat="48.39032" lon="2.53353">
        <ele>124.12</ele>
        <time>2018-09-28T10:16:34Z</time>
      </trkpt>
      <trkpt lat="48.39038" lon="2.53368">
        <ele>125.01</ele>
        <time>2018-09-28T10:16:51Z</time>
      </trkpt>
      <trkpt lat="48.39042" lon="2.53359">
        <ele>125.01</ele>
        <time>2018-09-28T10:17:08Z</time>
      </trkpt>
      <trkpt lat="48.39048" lon="2.53359">
        <ele>125.02</ele>
        <time>2018-09-28T10:17:27Z</time>
      </trkpt>
      <trkpt lat="48.39052" lon="2.53363">
        <ele>122.6</ele>
        <time>2018-09-28T10:17:32Z</time>
      </trkpt>
      <trkpt lat="48.39053" lon="2.53363">
        <ele>122.6</ele>
        <time>2018-09-28T10:17:33Z</time>
      </trkpt>
      <trkpt lat="48.39062" lon="2.53354">
        <ele>122.64</ele>
        <time>2018-09-28T10:17:47Z</time>
      </trkpt>
      <trkpt lat="48.39071" lon="2.53346">
        <ele>121.47</ele>
        <time>2018-09-28T10:17:58Z</time>
      </trkpt>
      <trkpt lat="48.39087" lon="2.53347">
        <ele>121.56</ele>
        <time>2018-09-28T10:18:15Z</time>
      </trkpt>
      <trkpt lat="48.39098" lon="2.5335">
        <ele>123.91</ele>
        <time>2018-09-28T10:18:30Z</time>
      </trkpt>
      <trkpt lat="48.39108" lon="2.53348">
        <ele>124.74</ele>
        <time>2018-09-28T10:18:46Z</time>
      </trkpt>
      <trkpt lat="48.39125" lon="2.53346">
        <ele>125.61</ele>
        <time>2018-09-28T10:19:04Z</time>
      </trkpt>
      <trkpt lat="48.39132" lon="2.53341">
        <ele>125.57</ele>
        <time>2018-09-28T10:19:21Z</time>
      </trkpt>
      <trkpt lat="48.39141" lon="2.53335">
        <ele>125.55</ele>
        <time>2018-09-28T10:19:39Z</time>
      </trkpt>
      <trkpt lat="48.3915" lon="2.53333">
        <ele>125.56</ele>
        <time>2018-09-28T10:19:55Z</time>
      </trkpt>
      <trkpt lat="48.39156" lon="2.5333">
        <ele>126.34</ele>
        <time>2018-09-28T10:20:13Z</time>
      </trkpt>
      <trkpt lat="48.39159" lon="2.53327">
        <ele>126.31</ele>
        <time>2018-09-28T10:20:20Z</time>
      </trkpt>
      <trkpt lat="48.39166" lon="2.53319">
        <ele>126.31</ele>
        <time>2018-09-28T10:20:33Z</time>
      </trkpt>
      <trkpt lat="48.39169" lon="2.53321">
        <ele>126.26</ele>
        <time>2018-09-28T10:20:38Z</time>
      </trkpt>
      <trkpt lat="48.39172" lon="2.53324">
        <ele>123.99</ele>
        <time>2018-09-28T10:20:42Z</time>
      </trkpt>
      <trkpt lat="48.39178" lon="2.53329">
        <ele>122.22</ele>
        <time>2018-09-28T10:20:59Z</time>
      </trkpt>
      <trkpt lat="48.39178" lon="2.53329">
        <ele>122.21</ele>
        <time>2018-09-28T10:21:00Z</time>
      </trkpt>
      <trkpt lat="48.39181" lon="2.53332">
        <ele>122.2</ele>
        <time>2018-09-28T10:21:04Z</time>
      </trkpt>
      <trkpt lat="48.39188" lon="2.53337">
        <ele>121.33</ele>
        <time>2018-09-28T10:21:13Z</time>
      </trkpt>
      <trkpt lat="48.39196" lon="2.5334">
        <ele>120.55</ele>
        <time>2018-09-28T10:21:27Z</time>
      </trkpt>
      <trkpt lat="48.39199" lon="2.53344">
        <ele>120.55</ele>
        <time>2018-09-28T10:21:32Z</time>
      </trkpt>
      <trkpt lat="48.39204" lon="2.53348">
        <ele>120.58</ele>
        <time>2018-09-28T10:21:39Z</time>
      </trkpt>
      <trkpt lat="48.39213" lon="2.53348">
        <ele>120.58</ele>
        <time>2018-09-28T10:21:53Z</time>
      </trkpt>
      <trkpt lat="48.39215" lon="2.53349">
        <ele>120.59</ele>
        <time>2018-09-28T10:22:00Z</time>
      </trkpt>
      <trkpt lat="48.39218" lon="2.53356">
        <ele>120.61</ele>
        <time>2018-09-28T10:22:05Z</time>
      </trkpt>
      <trkpt lat="48.39223" lon="2.53372">
        <ele>120.58</ele>
        <time>2018-09-28T10:22:17Z</time>
      </trkpt>
      <trkpt lat="48.39225" lon="2.53376">
        <ele>120.58</ele>
        <time>2018-09-28T10:22:20Z</time>
      </trkpt>
      <trkpt lat="48.39229" lon="2.53395">
        <ele>120.56</ele>
        <time>2018-09-28T10:22:34Z</time>
      </trkpt>
      <trkpt lat="48.39229" lon="2.534">
        <ele>120.56</ele>
        <time>2018-09-28T10:22:54Z</time>
      </trkpt>
      <trkpt lat="48.39234" lon="2.53415">
        <ele>120.59</ele>
        <time>2018-09-28T10:23:09Z</time>
      </trkpt>
      <trkpt lat="48.39235" lon="2.53419">
        <ele>120.58</ele>
        <time>2018-09-28T10:23:12Z</time>
      </trkpt>
      <trkpt lat="48.39239" lon="2.53438">
        <ele>120.5</ele>
        <time>2018-09-28T10:23:26Z</time>
      </trkpt>
      <trkpt lat="48.39239" lon="2.53442">
        <ele>120.47</ele>
        <time>2018-09-28T10:23:28Z</time>
      </trkpt>
      <trkpt lat="48.3924" lon="2.53466">
        <ele>120.44</ele>
        <time>2018-09-28T10:23:42Z</time>
      </trkpt>
      <trkpt lat="48.39239" lon="2.5347">
        <ele>120.44</ele>
        <time>2018-09-28T10:23:44Z</time>
      </trkpt>
      <trkpt lat="48.39239" lon="2.53476">
        <ele>120.43</ele>
        <time>2018-09-28T10:23:48Z</time>
      </trkpt>
      <trkpt lat="48.39238" lon="2.53486">
        <ele>120.42</ele>
        <time>2018-09-28T10:23:55Z</time>
      </trkpt>
      <trkpt lat="48.39237" lon="2.53493">
        <ele>120.41</ele>
        <time>2018-09-28T10:23:59Z</time>
      </trkpt>
      <trkpt lat="48.39242" lon="2.53518">
        <ele>120.43</ele>
        <time>2018-09-28T10:24:15Z</time>
      </trkpt>
      <trkpt lat="48.39246" lon="2.53541">
        <ele>120.44</ele>
        <time>2018-09-28T10:24:28Z</time>
      </trkpt>
      <trkpt lat="48.39248" lon="2.53559">
        <ele>120.47</ele>
        <time>2018-09-28T10:24:40Z</time>
      </trkpt>
      <trkpt lat="48.39249" lon="2.53561">
        <ele>120.48</ele>
        <time>2018-09-28T10:24:41Z</time>
      </trkpt>
      <trkpt lat="48.39252" lon="2.53566">
        <ele>119.63</ele>
        <time>2018-09-28T10:24:46Z</time>
      </trkpt>
      <trkpt lat="48.39257" lon="2.53575">
        <ele>118.94</ele>
        <time>2018-09-28T10:24:53Z</time>
      </trkpt>
      <trkpt lat="48.39259" lon="2.53593">
        <ele>118.28</ele>
        <time>2018-09-28T10:25:10Z</time>
      </trkpt>
      <trkpt lat="48.39256" lon="2.53614">
        <ele>118.39</ele>
        <time>2018-09-28T10:25:25Z</time>
      </trkpt>
      <trkpt lat="48.39254" lon="2.53642">
        <ele>118.53</ele>
        <time>2018-09-28T10:25:44Z</time>
      </trkpt>
      <trkpt lat="48.39247" lon="2.53668">
        <ele>118.7</ele>
        <time>2018-09-28T10:25:59Z</time>
      </trkpt>
      <trkpt lat="48.39246" lon="2.53694">
        <ele>118.81</ele>
        <time>2018-09-28T10:26:14Z</time>
      </trkpt>
      <trkpt lat="48.39246" lon="2.53698">
        <ele>118.8</ele>
        <time>2018-09-28T10:26:18Z</time>
      </trkpt>
      <trkpt lat="48.39247" lon="2.53716">
        <ele>118.92</ele>
        <time>2018-09-28T10:26:36Z</time>
      </trkpt>
      <trkpt lat="48.39245" lon="2.53738">
        <ele>118.96</ele>
        <time>2018-09-28T10:26:53Z</time>
      </trkpt>
      <trkpt lat="48.39246" lon="2.53762">
        <ele>119.04</ele>
        <time>2018-09-28T10:27:07Z</time>
      </trkpt>
      <trkpt lat="48.3925" lon="2.53781">
        <ele>117.43</ele>
        <time>2018-09-28T10:27:21Z</time>
      </trkpt>
      <trkpt lat="48.39252" lon="2.53793">
        <ele>117.58</ele>
        <time>2018-09-28T10:27:30Z</time>
      </trkpt>
      <trkpt lat="48.39264" lon="2.53806">
        <ele>117.59</ele>
        <time>2018-09-28T10:27:46Z</time>
      </trkpt>
      <trkpt lat="48.39265" lon="2.53809">
        <ele>117.59</ele>
        <time>2018-09-28T10:27:49Z</time>
      </trkpt>
      <trkpt lat="48.39271" lon="2.53826">
        <ele>117.64</ele>
        <time>2018-09-28T10:28:03Z</time>
      </trkpt>
      <trkpt lat="48.39271" lon="2.53832">
        <ele>117.67</ele>
        <time>2018-09-28T10:28:07Z</time>
      </trkpt>
      <trkpt lat="48.3927" lon="2.53851">
        <ele>117.84</ele>
        <time>2018-09-28T10:28:22Z</time>
      </trkpt>
      <trkpt lat="48.39265" lon="2.53874">
        <ele>118</ele>
        <time>2018-09-28T10:28:40Z</time>
      </trkpt>
      <trkpt lat="48.39258" lon="2.53895">
        <ele>118.09</ele>
        <time>2018-09-28T10:28:55Z</time>
      </trkpt>
      <trkpt lat="48.39243" lon="2.53913">
        <ele>118.23</ele>
        <time>2018-09-28T10:29:12Z</time>
      </trkpt>
      <trkpt lat="48.39232" lon="2.53927">
        <ele>118.32</ele>
        <time>2018-09-28T10:29:29Z</time>
      </trkpt>
      <trkpt lat="48.39227" lon="2.53954">
        <ele>118.56</ele>
        <time>2018-09-28T10:29:45Z</time>
      </trkpt>
      <trkpt lat="48.39224" lon="2.53981">
        <ele>118.64</ele>
        <time>2018-09-28T10:30:03Z</time>
      </trkpt>
      <trkpt lat="48.39225" lon="2.53989">
        <ele>118.67</ele>
        <time>2018-09-28T10:30:08Z</time>
      </trkpt>
      <trkpt lat="48.39228" lon="2.53998">
        <ele>118.71</ele>
        <time>2018-09-28T10:30:14Z</time>
      </trkpt>
      <trkpt lat="48.39235" lon="2.54018">
        <ele>118.82</ele>
        <time>2018-09-28T10:30:28Z</time>
      </trkpt>
      <trkpt lat="48.39235" lon="2.54021">
        <ele>118.83</ele>
        <time>2018-09-28T10:30:30Z</time>
      </trkpt>
      <trkpt lat="48.39236" lon="2.54034">
        <ele>118.92</ele>
        <time>2018-09-28T10:30:37Z</time>
      </trkpt>
      <trkpt lat="48.39239" lon="2.54055">
        <ele>119</ele>
        <time>2018-09-28T10:30:51Z</time>
      </trkpt>
      <trkpt lat="48.3924" lon="2.54059">
        <ele>119.01</ele>
        <time>2018-09-28T10:30:53Z</time>
      </trkpt>
      <trkpt lat="48.39242" lon="2.54076">
        <ele>119.08</ele>
        <time>2018-09-28T10:31:07Z</time>
      </trkpt>
      <trkpt lat="48.39247" lon="2.54093">
        <ele>118.38</ele>
        <time>2018-09-28T10:31:23Z</time>
      </trkpt>
      <trkpt lat="48.3925" lon="2.54112">
        <ele>118.5</ele>
        <time>2018-09-28T10:31:38Z</time>
      </trkpt>
      <trkpt lat="48.39248" lon="2.54117">
        <ele>118.5</ele>
        <time>2018-09-28T10:31:42Z</time>
      </trkpt>
      <trkpt lat="48.39239" lon="2.54137">
        <ele>118.58</ele>
        <time>2018-09-28T10:31:58Z</time>
      </trkpt>
      <trkpt lat="48.39229" lon="2.54154">
        <ele>118.66</ele>
        <time>2018-09-28T10:32:13Z</time>
      </trkpt>
      <trkpt lat="48.39227" lon="2.54155">
        <ele>118.66</ele>
        <time>2018-09-28T10:32:14Z</time>
      </trkpt>
      <trkpt lat="48.39214" lon="2.54175">
        <ele>118.74</ele>
        <time>2018-09-28T10:32:28Z</time>
      </trkpt>
      <trkpt lat="48.39212" lon="2.54184">
        <ele>118.78</ele>
        <time>2018-09-28T10:32:33Z</time>
      </trkpt>
      <trkpt lat="48.39203" lon="2.54204">
        <ele>118.83</ele>
        <time>2018-09-28T10:32:45Z</time>
      </trkpt>
      <trkpt lat="48.39202" lon="2.54207">
        <ele>118.84</ele>
        <time>2018-09-28T10:32:47Z</time>
      </trkpt>
      <trkpt lat="48.39204" lon="2.5423">
        <ele>118.88</ele>
        <time>2018-09-28T10:33:01Z</time>
      </trkpt>
      <trkpt lat="48.39205" lon="2.5424">
        <ele>118.95</ele>
        <time>2018-09-28T10:33:07Z</time>
      </trkpt>
      <trkpt lat="48.39203" lon="2.54249">
        <ele>119.02</ele>
        <time>2018-09-28T10:33:13Z</time>
      </trkpt>
      <trkpt lat="48.39205" lon="2.54278">
        <ele>119.06</ele>
        <time>2018-09-28T10:33:27Z</time>
      </trkpt>
      <trkpt lat="48.39202" lon="2.543">
        <ele>119.11</ele>
        <time>2018-09-28T10:33:40Z</time>
      </trkpt>
      <trkpt lat="48.39201" lon="2.5431">
        <ele>118.36</ele>
        <time>2018-09-28T10:33:46Z</time>
      </trkpt>
      <trkpt lat="48.39201" lon="2.54314">
        <ele>118.35</ele>
        <time>2018-09-28T10:33:49Z</time>
      </trkpt>
      <trkpt lat="48.39204" lon="2.54331">
        <ele>116.77</ele>
        <time>2018-09-28T10:34:01Z</time>
      </trkpt>
      <trkpt lat="48.39206" lon="2.54344">
        <ele>114.5</ele>
        <time>2018-09-28T10:34:11Z</time>
      </trkpt>
      <trkpt lat="48.39201" lon="2.54368">
        <ele>112.03</ele>
        <time>2018-09-28T10:34:27Z</time>
      </trkpt>
      <trkpt lat="48.39194" lon="2.54378">
        <ele>110.47</ele>
        <time>2018-09-28T10:34:39Z</time>
      </trkpt>
      <trkpt lat="48.39187" lon="2.54384">
        <ele>107.79</ele>
        <time>2018-09-28T10:34:53Z</time>
      </trkpt>
      <trkpt lat="48.39184" lon="2.54391">
        <ele>107.18</ele>
        <time>2018-09-28T10:35:07Z</time>
      </trkpt>
      <trkpt lat="48.39177" lon="2.54401">
        <ele>106.27</ele>
        <time>2018-09-28T10:35:18Z</time>
      </trkpt>
      <trkpt lat="48.39175" lon="2.54411">
        <ele>105.41</ele>
        <time>2018-09-28T10:35:26Z</time>
      </trkpt>
      <trkpt lat="48.39173" lon="2.54413">
        <ele>105.4</ele>
        <time>2018-09-28T10:35:28Z</time>
      </trkpt>
      <trkpt lat="48.3917" lon="2.54425">
        <ele>104.62</ele>
        <time>2018-09-28T10:35:35Z</time>
      </trkpt>
      <trkpt lat="48.39172" lon="2.54437">
        <ele>104.62</ele>
        <time>2018-09-28T10:35:42Z</time>
      </trkpt>
      <trkpt lat="48.3918" lon="2.5446">
        <ele>104.72</ele>
        <time>2018-09-28T10:35:56Z</time>
      </trkpt>
      <trkpt lat="48.39181" lon="2.54475">
        <ele>103.75</ele>
        <time>2018-09-28T10:36:05Z</time>
      </trkpt>
      <trkpt lat="48.39173" lon="2.54491">
        <ele>102.91</ele>
        <time>2018-09-28T10:36:18Z</time>
      </trkpt>
      <trkpt lat="48.39169" lon="2.545">
        <ele>102.04</ele>
        <time>2018-09-28T10:36:25Z</time>
      </trkpt>
      <trkpt lat="48.3917" lon="2.54517">
        <ele>100.37</ele>
        <time>2018-09-28T10:36:37Z</time>
      </trkpt>
      <trkpt lat="48.3917" lon="2.54518">
        <ele>100.37</ele>
        <time>2018-09-28T10:36:38Z</time>
      </trkpt>
      <trkpt lat="48.39169" lon="2.5452">
        <ele>100.26</ele>
        <time>2018-09-28T10:36:40Z</time>
      </trkpt>
      <trkpt lat="48.3917" lon="2.5453">
        <ele>98.56</ele>
        <time>2018-09-28T10:36:50Z</time>
      </trkpt>
      <trkpt lat="48.39175" lon="2.54553">
        <ele>96.13</ele>
        <time>2018-09-28T10:37:05Z</time>
      </trkpt>
      <trkpt lat="48.39175" lon="2.54559">
        <ele>96.11</ele>
        <time>2018-09-28T10:37:08Z</time>
      </trkpt>
      <trkpt lat="48.39167" lon="2.54573">
        <ele>94.14</ele>
        <time>2018-09-28T10:37:22Z</time>
      </trkpt>
      <trkpt lat="48.39172" lon="2.54584">
        <ele>93.28</ele>
        <time>2018-09-28T10:37:37Z</time>
      </trkpt>
      <trkpt lat="48.39173" lon="2.54593">
        <ele>92.47</ele>
        <time>2018-09-28T10:37:44Z</time>
      </trkpt>
      <trkpt lat="48.39169" lon="2.54618">
        <ele>88.65</ele>
        <time>2018-09-28T10:38:00Z</time>
      </trkpt>
      <trkpt lat="48.3917" lon="2.54619">
        <ele>92.7</ele>
        <time>2018-09-28T10:38:01Z</time>
      </trkpt>
      <trkpt lat="48.3917" lon="2.54621">
        <ele>92.69</ele>
        <time>2018-09-28T10:38:02Z</time>
      </trkpt>
      <trkpt lat="48.3917" lon="2.54627">
        <ele>90.31</ele>
        <time>2018-09-28T10:38:05Z</time>
      </trkpt>
      <trkpt lat="48.39169" lon="2.54634">
        <ele>89.46</ele>
        <time>2018-09-28T10:38:09Z</time>
      </trkpt>
      <trkpt lat="48.39164" lon="2.54655">
        <ele>88.65</ele>
        <time>2018-09-28T10:38:22Z</time>
      </trkpt>
      <trkpt lat="48.39162" lon="2.5467">
        <ele>87.71</ele>
        <time>2018-09-28T10:38:31Z</time>
      </trkpt>
      <trkpt lat="48.39158" lon="2.54688">
        <ele>87.69</ele>
        <time>2018-09-28T10:38:43Z</time>
      </trkpt>
      <trkpt lat="48.39155" lon="2.54696">
        <ele>86.9</ele>
        <time>2018-09-28T10:38:49Z</time>
      </trkpt>
      <trkpt lat="48.39151" lon="2.54728">
        <ele>86.93</ele>
        <time>2018-09-28T10:39:07Z</time>
      </trkpt>
      <trkpt lat="48.39153" lon="2.54742">
        <ele>86.13</ele>
        <time>2018-09-28T10:39:14Z</time>
      </trkpt>
      <trkpt lat="48.3915" lon="2.54769">
        <ele>85.35</ele>
        <time>2018-09-28T10:39:29Z</time>
      </trkpt>
      <trkpt lat="48.39149" lon="2.54784">
        <ele>85.45</ele>
        <time>2018-09-28T10:39:43Z</time>
      </trkpt>
      <trkpt lat="48.39157" lon="2.5481">
        <ele>85.5</ele>
        <time>2018-09-28T10:39:56Z</time>
      </trkpt>
      <trkpt lat="48.39159" lon="2.54816">
        <ele>85.53</ele>
        <time>2018-09-28T10:40:01Z</time>
      </trkpt>
      <trkpt lat="48.3916" lon="2.54825">
        <ele>85.54</ele>
        <time>2018-09-28T10:40:07Z</time>
      </trkpt>
      <trkpt lat="48.39158" lon="2.54839">
        <ele>84.8</ele>
        <time>2018-09-28T10:40:17Z</time>
      </trkpt>
      <trkpt lat="48.39158" lon="2.54853">
        <ele>84.86</ele>
        <time>2018-09-28T10:40:30Z</time>
      </trkpt>
      <trkpt lat="48.39157" lon="2.54859">
        <ele>84.88</ele>
        <time>2018-09-28T10:40:36Z</time>
      </trkpt>
      <trkpt lat="48.39155" lon="2.54879">
        <ele>84.86</ele>
        <time>2018-09-28T10:40:48Z</time>
      </trkpt>
      <trkpt lat="48.39157" lon="2.54888">
        <ele>84.86</ele>
        <time>2018-09-28T10:40:52Z</time>
      </trkpt>
      <trkpt lat="48.39156" lon="2.54893">
        <ele>84.13</ele>
        <time>2018-09-28T10:40:55Z</time>
      </trkpt>
      <trkpt lat="48.39152" lon="2.54916">
        <ele>84.18</ele>
        <time>2018-09-28T10:41:10Z</time>
      </trkpt>
      <trkpt lat="48.39156" lon="2.54942">
        <ele>83.42</ele>
        <time>2018-09-28T10:41:24Z</time>
      </trkpt>
      <trkpt lat="48.39162" lon="2.54973">
        <ele>83.53</ele>
        <time>2018-09-28T10:41:40Z</time>
      </trkpt>
      <trkpt lat="48.3916" lon="2.54982">
        <ele>83.55</ele>
        <time>2018-09-28T10:41:55Z</time>
      </trkpt>
      <trkpt lat="48.39155" lon="2.54998">
        <ele>83.56</ele>
        <time>2018-09-28T10:42:12Z</time>
      </trkpt>
      <trkpt lat="48.39151" lon="2.55015">
        <ele>82.79</ele>
        <time>2018-09-28T10:42:28Z</time>
      </trkpt>
      <trkpt lat="48.39145" lon="2.55039">
        <ele>82.75</ele>
        <time>2018-09-28T10:42:44Z</time>
      </trkpt>
      <trkpt lat="48.39139" lon="2.55065">
        <ele>82.75</ele>
        <time>2018-09-28T10:43:01Z</time>
      </trkpt>
      <trkpt lat="48.39139" lon="2.55069">
        <ele>82.75</ele>
        <time>2018-09-28T10:43:03Z</time>
      </trkpt>
      <trkpt lat="48.39136" lon="2.55092">
        <ele>82.75</ele>
        <time>2018-09-28T10:43:16Z</time>
      </trkpt>
      <trkpt lat="48.39135" lon="2.55096">
        <ele>82.75</ele>
        <time>2018-09-28T10:43:18Z</time>
      </trkpt>
      <trkpt lat="48.39135" lon="2.55109">
        <ele>82.75</ele>
        <time>2018-09-28T10:43:24Z</time>
      </trkpt>
      <trkpt lat="48.39128" lon="2.55132">
        <ele>82.78</ele>
        <time>2018-09-28T10:43:40Z</time>
      </trkpt>
      <trkpt lat="48.39117" lon="2.55153">
        <ele>82.82</ele>
        <time>2018-09-28T10:43:55Z</time>
      </trkpt>
      <trkpt lat="48.39108" lon="2.55165">
        <ele>82.85</ele>
        <time>2018-09-28T10:44:05Z</time>
      </trkpt>
      <trkpt lat="48.39105" lon="2.55172">
        <ele>82.86</ele>
        <time>2018-09-28T10:44:09Z</time>
      </trkpt>
      <trkpt lat="48.39094" lon="2.55193">
        <ele>82.91</ele>
        <time>2018-09-28T10:44:23Z</time>
      </trkpt>
      <trkpt lat="48.3909" lon="2.55202">
        <ele>82.92</ele>
        <time>2018-09-28T10:44:28Z</time>
      </trkpt>
      <trkpt lat="48.39077" lon="2.55222">
        <ele>82.97</ele>
        <time>2018-09-28T10:44:44Z</time>
      </trkpt>
      <trkpt lat="48.39071" lon="2.55236">
        <ele>82.97</ele>
        <time>2018-09-28T10:44:55Z</time>
      </trkpt>
      <trkpt lat="48.39061" lon="2.55242">
        <ele>82.98</ele>
        <time>2018-09-28T10:45:03Z</time>
      </trkpt>
      <trkpt lat="48.39047" lon="2.55249">
        <ele>82.95</ele>
        <time>2018-09-28T10:45:18Z</time>
      </trkpt>
      <trkpt lat="48.39052" lon="2.55252">
        <ele>75.23</ele>
        <time>2018-09-28T10:45:34Z</time>
      </trkpt>
      <trkpt lat="48.39053" lon="2.55254">
        <ele>80.59</ele>
        <time>2018-09-28T10:45:36Z</time>
      </trkpt>
      <trkpt lat="48.39053" lon="2.55255">
        <ele>84.24</ele>
        <time>2018-09-28T10:45:37Z</time>
      </trkpt>
      <trkpt lat="48.39054" lon="2.55257">
        <ele>75.37</ele>
        <time>2018-09-28T10:45:40Z</time>
      </trkpt>
      <trkpt lat="48.39055" lon="2.55258">
        <ele>86.31</ele>
        <time>2018-09-28T10:45:41Z</time>
      </trkpt>
      <trkpt lat="48.39055" lon="2.55259">
        <ele>80.05</ele>
        <time>2018-09-28T10:45:42Z</time>
      </trkpt>
      <trkpt lat="48.39056" lon="2.5526">
        <ele>88.12</ele>
        <time>2018-09-28T10:45:44Z</time>
      </trkpt>
      <trkpt lat="48.39056" lon="2.5526">
        <ele>84.39</ele>
        <time>2018-09-28T10:45:45Z</time>
      </trkpt>
      <trkpt lat="48.39058" lon="2.55262">
        <ele>82.07</ele>
        <time>2018-09-28T10:45:48Z</time>
      </trkpt>
      <trkpt lat="48.39061" lon="2.55263">
        <ele>80.39</ele>
        <time>2018-09-28T10:46:02Z</time>
      </trkpt>
      <trkpt lat="48.39063" lon="2.55259">
        <ele>90.51</ele>
        <time>2018-09-28T10:46:05Z</time>
      </trkpt>
      <trkpt lat="48.39063" lon="2.55258">
        <ele>83.63</ele>
        <time>2018-09-28T10:46:06Z</time>
      </trkpt>
      <trkpt lat="48.39063" lon="2.55257">
        <ele>83.62</ele>
        <time>2018-09-28T10:46:08Z</time>
      </trkpt>
      <trkpt lat="48.39058" lon="2.55255">
        <ele>83.43</ele>
        <time>2018-09-28T10:46:10Z</time>
      </trkpt>
      <trkpt lat="48.39054" lon="2.55256">
        <ele>87.3</ele>
        <time>2018-09-28T10:46:14Z</time>
      </trkpt>
      <trkpt lat="48.39051" lon="2.55255">
        <ele>83.23</ele>
        <time>2018-09-28T10:46:15Z</time>
      </trkpt>
      <trkpt lat="48.39049" lon="2.55255">
        <ele>83.16</ele>
        <time>2018-09-28T10:46:16Z</time>
      </trkpt>
      <trkpt lat="48.39043" lon="2.55253">
        <ele>85.73</ele>
        <time>2018-09-28T10:46:23Z</time>
      </trkpt>
    </trkseg>
  </trk>
</gpx>